FR314 / 9H-QDK 7700 Squawk Report (18th of September, 2020)

Time Lat Lon Altitude Heading Speed Vertical Rate
2020-09-18 07:19:20 GMT 44.568569 26.087740 0 174 0
2020-09-18 07:19:10 GMT 44.568565 26.087740 0 174 0
2020-09-18 07:18:45 GMT 44.568569 26.087740 0 174 0
2020-09-18 07:18:35 GMT 44.568565 26.087740 0 174 0
2020-09-18 07:18:10 GMT 44.568569 26.087740 0 174 0
2020-09-18 07:18:05 GMT 44.568565 26.087740 0 174 0
2020-09-18 07:17:55 GMT 44.568569 26.087740 0 174 0
2020-09-18 07:16:54 GMT 44.568569 26.087740 0 174 0
2020-09-18 07:16:14 GMT 44.568565 26.087740 0 174 0
2020-09-18 07:15:54 GMT 44.568569 26.087740 0 174 0
2020-09-18 07:15:24 GMT 44.568565 26.087740 0 174 0
2020-09-18 07:15:04 GMT 44.568569 26.087740 0 174 0
2020-09-18 07:15:00 GMT 44.568565 26.087740 0 174 0
2020-09-18 07:14:54 GMT 44.568546 26.087740 0 174 0
2020-09-18 07:14:39 GMT 44.568558 26.087740 0 174 0
2020-09-18 07:14:28 GMT 44.568554 26.087740 0 174 0
2020-09-18 07:13:54 GMT 44.568558 26.087740 0 174 0
2020-09-18 07:13:48 GMT 44.568554 26.087740 0 174 0
2020-09-18 07:13:28 GMT 44.568558 26.087740 0 174 0
2020-09-18 07:13:08 GMT 44.568554 26.087740 0 174 0
2020-09-18 07:12:48 GMT 44.568558 26.087740 0 174 0
2020-09-18 07:12:38 GMT 44.568554 26.087740 0 174 0
2020-09-18 07:12:28 GMT 44.568558 26.087740 0 174 0
2020-09-18 07:12:18 GMT 44.568554 26.087740 0 174 0
2020-09-18 07:11:54 GMT 44.568558 26.087740 0 174 0
2020-09-18 07:11:19 GMT 44.568565 26.087740 0 174 0
2020-09-18 07:11:09 GMT 44.568558 26.087740 0 174 0
2020-09-18 07:10:46 GMT 44.568565 26.087740 0 174 0
2020-09-18 07:10:35 GMT 44.568569 26.087740 0 174 0
2020-09-18 07:10:10 GMT 44.568569 26.087740 0 174 0
2020-09-18 07:10:00 GMT 44.568569 26.087740 0 174 0
2020-09-18 07:09:40 GMT 44.568565 26.087740 0 174 0
2020-09-18 07:09:30 GMT 44.568569 26.087740 0 174 0
2020-09-18 07:09:19 GMT 44.568565 26.087740 0 174 0
2020-09-18 07:08:59 GMT 44.568569 26.087740 0 174 0
2020-09-18 07:08:55 GMT 44.568565 26.087740 0 174 0
2020-09-18 07:08:40 GMT 44.568569 26.087740 0 174 0
2020-09-18 07:08:29 GMT 44.568565 26.087740 0 174 0
2020-09-18 07:08:19 GMT 44.568569 26.087740 0 174 0
2020-09-18 07:08:05 GMT 44.568565 26.087740 0 174 0
2020-09-18 07:07:49 GMT 44.568569 26.087740 0 174 0
2020-09-18 07:07:46 GMT 44.568565 26.087740 0 174 0
2020-09-18 07:07:42 GMT 44.568569 26.087740 0 174 0
2020-09-18 07:07:37 GMT 44.568565 26.087740 0 174 0
2020-09-18 07:07:32 GMT 44.568569 26.087740 0 174 0
2020-09-18 07:07:26 GMT 44.568592 26.087740 0 174 3
2020-09-18 07:07:22 GMT 44.568634 26.087740 0 174 4
2020-09-18 07:07:15 GMT 44.568764 26.087723 0 174 5
2020-09-18 07:07:12 GMT 44.568821 26.087706 0 174 5
2020-09-18 07:07:01 GMT 44.569054 26.087673 0 177 5
2020-09-18 07:06:51 GMT 44.569252 26.087639 0 219 4
2020-09-18 07:06:40 GMT 44.569370 26.087873 0 264 6
2020-09-18 07:06:31 GMT 44.569405 26.088242 0 264 6
2020-09-18 07:06:20 GMT 44.569427 26.088621 0 264 6
2020-09-18 07:06:09 GMT 44.569462 26.089031 0 264 7
2020-09-18 07:06:03 GMT 44.569485 26.089293 0 264 7
2020-09-18 07:06:00 GMT 44.569496 26.089422 0 264 7
2020-09-18 07:05:50 GMT 44.569530 26.089832 0 264 7
2020-09-18 07:05:39 GMT 44.569553 26.090273 0 264 7
2020-09-18 07:05:28 GMT 44.569592 26.090736 0 264 7
2020-09-18 07:05:18 GMT 44.569626 26.091173 0 264 7
2020-09-18 07:05:09 GMT 44.569660 26.091558 0 264 7
2020-09-18 07:05:03 GMT 44.569672 26.091791 0 264 7
2020-09-18 07:04:59 GMT 44.569695 26.091976 0 264 7
2020-09-18 07:04:48 GMT 44.569725 26.092464 0 264 9
2020-09-18 07:04:44 GMT 44.569748 26.092709 0 264 9
2020-09-18 07:04:38 GMT 44.569775 26.093048 0 264 10
2020-09-18 07:04:27 GMT 44.569828 26.093691 0 264 10
2020-09-18 07:04:17 GMT 44.569874 26.094296 0 264 10
2020-09-18 07:04:07 GMT 44.569916 26.094908 0 264 10
2020-09-18 07:04:00 GMT 44.569954 26.095325 0 264 10
2020-09-18 07:03:57 GMT 44.569962 26.095528 0 264 9
2020-09-18 07:03:49 GMT 44.569996 26.095997 0 264 9
2020-09-18 07:03:42 GMT 44.570023 26.096321 0 264 9
2020-09-18 07:03:32 GMT 44.570068 26.096910 0 264 8
2020-09-18 07:03:21 GMT 44.570114 26.097437 0 264 8
2020-09-18 07:03:11 GMT 44.570148 26.097939 0 261 8
2020-09-18 07:03:01 GMT 44.570194 26.098398 0 261 7
2020-09-18 07:02:50 GMT 44.570229 26.098806 0 261 6
2020-09-18 07:02:40 GMT 44.570267 26.099129 0 258 0
2020-09-18 07:02:29 GMT 44.570286 26.099281 0 261 0
2020-09-18 07:02:22 GMT 44.570274 26.099279 0 261 0
2020-09-18 07:02:19 GMT 44.570286 26.099281 0 261 0
2020-09-18 07:02:08 GMT 44.570324 26.099161 0 284 2
2020-09-18 07:01:59 GMT 44.570381 26.099112 0 312 2
2020-09-18 07:01:49 GMT 44.570492 26.099070 0 334 4
2020-09-18 07:01:39 GMT 44.570663 26.099035 0 345 4
2020-09-18 07:01:28 GMT 44.570847 26.099003 0 351 4
2020-09-18 07:01:18 GMT 44.571007 26.098970 0 351 4
2020-09-18 07:01:08 GMT 44.571159 26.098927 0 351 3
2020-09-18 07:00:57 GMT 44.571301 26.098927 0 354 3
2020-09-18 07:00:48 GMT 44.571430 26.098906 0 357 4
2020-09-18 07:00:28 GMT 44.571636 26.098888 0 354 0
2020-09-18 07:00:23 GMT 44.571636 26.098892 0 354 0
2020-09-18 07:00:03 GMT 44.571636 26.098888 0 354 0
2020-09-18 06:59:43 GMT 44.571636 26.098877 0 354 0
2020-09-18 06:59:28 GMT 44.571648 26.098888 0 354 0
2020-09-18 06:59:22 GMT 44.571636 26.098877 0 354 0
2020-09-18 06:59:02 GMT 44.571648 26.098888 0 354 0
2020-09-18 06:58:53 GMT 44.571636 26.098888 0 354 0
2020-09-18 06:58:42 GMT 44.571636 26.098892 0 354 0
2020-09-18 06:58:23 GMT 44.571636 26.098888 0 354 0
2020-09-18 06:57:08 GMT 44.571636 26.098888 0 354 0
2020-09-18 06:56:58 GMT 44.571636 26.098892 0 354 0
2020-09-18 06:56:48 GMT 44.571636 26.098888 0 354 0
2020-09-18 06:55:48 GMT 44.571636 26.098892 0 354 0
2020-09-18 06:55:38 GMT 44.571648 26.098888 0 354 0
2020-09-18 06:55:28 GMT 44.571636 26.098892 0 354 0
2020-09-18 06:55:18 GMT 44.571663 26.098877 0 354 0
2020-09-18 06:55:03 GMT 44.571659 26.098873 0 354 0
2020-09-18 06:54:58 GMT 44.571663 26.098877 0 354 0
2020-09-18 06:54:23 GMT 44.571659 26.098873 0 354 0
2020-09-18 06:54:13 GMT 44.571648 26.098873 0 354 0
2020-09-18 06:54:03 GMT 44.571651 26.098877 0 354 0
2020-09-18 06:53:02 GMT 44.571651 26.098877 0 354 0
We lost coverage of the aircraft here for a total of 14 minutes
2020-09-18 06:39:27 GMT 44.571636 26.098906 0 354 0 0
2020-09-18 06:39:17 GMT 44.571636 26.098892 0 354 0 0
2020-09-18 06:38:49 GMT 44.571636 26.098906 0 354 2 0
2020-09-18 06:38:46 GMT 44.571602 26.098909 0 354 7 0
2020-09-18 06:38:38 GMT 44.571224 26.098970 0 354 14 0
2020-09-18 06:38:28 GMT 44.570557 26.099112 0 326 15 0
2020-09-18 06:38:19 GMT 44.570324 26.100183 0 264 22 0
2020-09-18 06:38:07 GMT 44.570415 26.101404 0 264 23 0
2020-09-18 06:37:58 GMT 44.570545 26.102962 0 264 23 0
2020-09-18 06:37:48 GMT 44.570629 26.104252 0 264 23 0
2020-09-18 06:37:38 GMT 44.570583 26.105705 0 292 22 0
2020-09-18 06:37:28 GMT 44.570091 26.106882 0 315 20 0
2020-09-18 06:37:17 GMT 44.569206 26.107418 0 354 21 0
2020-09-18 06:37:05 GMT 44.568111 26.107569 0 354 18 0
2020-09-18 06:36:57 GMT 44.567459 26.107601 0 16 17 0
2020-09-18 06:36:46 GMT 44.566978 26.106802 0 81 29 0
2020-09-18 06:36:35 GMT 44.566784 26.104486 0 84 36 0
2020-09-18 06:36:26 GMT 44.566601 26.102142 0 84 41 0
2020-09-18 06:36:16 GMT 44.566364 26.099262 100 84 52 0
2020-09-18 06:36:04 GMT 44.565994 26.094540 100 83 85 -64
2020-09-18 06:35:55 GMT 44.565620 26.089449 300 82 112 -128
2020-09-18 06:35:45 GMT 44.565033 26.081675 100 84 128 -128
2020-09-18 06:35:35 GMT 44.564457 26.073236 200 84 125 -576
2020-09-18 06:35:24 GMT 44.563713 26.064194 350 83 123 -576
2020-09-18 06:35:17 GMT 44.563293 26.058851 375 83 121 -576
2020-09-18 06:35:13 GMT 44.563015 26.055416 425 83 119 -704
2020-09-18 06:35:08 GMT 44.562687 26.050997 475 83 118 -576
2020-09-18 06:35:05 GMT 44.562561 26.049370 500 83 119 -576
2020-09-18 06:35:02 GMT 44.562332 26.046818 525 83 119 -704
2020-09-18 06:34:56 GMT 44.561806 26.039606 600 84 120 -576
2020-09-18 06:34:52 GMT 44.561806 26.039606 625 84 121 -576
2020-09-18 06:34:47 GMT 44.561462 26.035177 725 84 125 -640
2020-09-18 06:34:43 GMT 44.561188 26.031385 725 84 127 -640
2020-09-18 06:34:35 GMT 44.560780 26.026009 800 84 127 -576
2020-09-18 06:34:31 GMT 44.560547 26.022123 800 85 127 -640
2020-09-18 06:34:26 GMT 44.560226 26.017391 875 82 128 -512
2020-09-18 06:34:21 GMT 44.559940 26.014217 925 83 129 -640
2020-09-18 06:34:16 GMT 44.559570 26.009729 1,000 83 130 -704
2020-09-18 06:34:13 GMT 44.559357 26.007057 1,050 83 131 -576
2020-09-18 06:34:06 GMT 44.558899 26.001106 1,100 83 134 -768
2020-09-18 06:34:03 GMT 44.558685 25.998409 1,125 83 136 -704
2020-09-18 06:33:55 GMT 44.558167 25.991493 1,225 84 141 -768
2020-09-18 06:33:52 GMT 44.557472 25.982666 1,450 83 145 -768
2020-09-18 06:33:46 GMT 44.557472 25.982666 1,350 83 142 -512
2020-09-18 06:33:42 GMT 44.557297 25.979855 1,350 84 143 -640
2020-09-18 06:33:35 GMT 44.556774 25.973221 1,450 83 145 -768
2020-09-18 06:33:32 GMT 44.556519 25.970110 1,550 83 147 -768
2020-09-18 06:33:24 GMT 44.556030 25.963373 1,575 84 147 -704
2020-09-18 06:33:20 GMT 44.555706 25.959488 1,625 83 146 -768
2020-09-18 06:33:15 GMT 44.555283 25.953630 1,700 83 146 -768
2020-09-18 06:33:10 GMT 44.554916 25.949446 1,725 83 146 -576
2020-09-18 06:33:04 GMT 44.554550 25.944279 1,800 84 147 -576
2020-09-18 06:33:01 GMT 44.554310 25.941132 1,850 83 148 -832
2020-09-18 06:32:54 GMT 44.553818 25.934340 1,950 83 150 -768
2020-09-18 06:32:51 GMT 44.553589 25.931396 2,025 83 151 -576
2020-09-18 06:32:44 GMT 44.552773 25.921303 2,075 84 154 -768
2020-09-18 06:32:40 GMT 44.552773 25.921303 3,125 83 161 -768
2020-09-18 06:32:34 GMT 44.552261 25.914328 2,200 83 156 -768
2020-09-18 06:32:30 GMT 44.552032 25.911188 2,225 83 157 -768
2020-09-18 06:32:21 GMT 44.551144 25.900871 2,350 83 161 -768
2020-09-18 06:32:13 GMT 44.550537 25.892767 2,450 84 164 -832
2020-09-18 06:32:10 GMT 44.550304 25.890085 2,475 84 164 -960
2020-09-18 06:32:03 GMT 44.549747 25.882181 2,625 83 166 -896
2020-09-18 06:31:59 GMT 44.549469 25.878950 2,650 83 167 -832
2020-09-18 06:31:53 GMT 44.548721 25.870726 2,725 82 170 -768
2020-09-18 06:31:50 GMT 44.548489 25.868179 2,775 82 171 -768
2020-09-18 06:31:42 GMT 44.547684 25.859201 2,875 82 173 -832
2020-09-18 06:31:39 GMT 44.547501 25.856913 2,900 83 174 -896
2020-09-18 06:31:33 GMT 44.546906 25.849392 3,025 87 177 -960
2020-09-18 06:31:30 GMT 44.547001 25.837700 3,125 95 178 -1088
2020-09-18 06:31:23 GMT 44.547001 25.837700 3,200 103 180 -1024
2020-09-18 06:31:19 GMT 44.547886 25.832743 3,250 114 182 -1024
2020-09-18 06:31:12 GMT 44.551003 25.824636 3,375 128 187 -896
2020-09-18 06:31:07 GMT 44.553146 25.821556 3,700 139 191 -960
2020-09-18 06:31:03 GMT 44.556637 25.817804 3,500 145 194 -1088
2020-09-18 06:30:58 GMT 44.559338 25.815258 3,700 146 196 -1088
2020-09-18 06:30:52 GMT 44.564026 25.810940 3,675 146 196 -1088
2020-09-18 06:30:49 GMT 44.566818 25.808390 3,825 147 199 -1024
2020-09-18 06:30:42 GMT 44.571945 25.803810 3,875 147 199 -960
2020-09-18 06:30:39 GMT 44.574921 25.801130 3,925 147 201 -896
2020-09-18 06:30:31 GMT 44.581192 25.795441 4,100 147 201 -1408
2020-09-18 06:30:27 GMT 44.584057 25.792885 4,175 147 201 -768
2020-09-18 06:30:21 GMT 44.588013 25.789333 4,225 147 204 -512
2020-09-18 06:30:17 GMT 44.591583 25.786156 4,250 147 206 -256
2020-09-18 06:30:10 GMT 44.597649 25.780827 4,325 147 210 -768
2020-09-18 06:30:06 GMT 44.600304 25.778414 4,350 147 212 -704
2020-09-18 06:30:02 GMT 44.604584 25.774664 4,400 147 214 -640
2020-09-18 06:29:57 GMT 44.607983 25.771582 4,450 147 216 -704
2020-09-18 06:29:51 GMT 44.612869 25.767256 4,525 147 219 -448
2020-09-18 06:29:48 GMT 44.616211 25.764313 4,550 147 223 -384
2020-09-18 06:29:41 GMT 44.622208 25.758949 4,600 147 227 -512
2020-09-18 06:29:37 GMT 44.626278 25.755302 4,625 147 231 -384
2020-09-18 06:29:31 GMT 44.630951 25.751102 4,675 147 234 -448
2020-09-18 06:29:27 GMT 44.634705 25.747801 4,725 147 238 -448
2020-09-18 06:29:24 GMT 44.637405 25.745415 4,725 147 238 -448
2020-09-18 06:29:19 GMT 44.643223 25.740364 4,775 147 243 -576
2020-09-18 06:29:15 GMT 44.645233 25.738546 4,875 147 244 -576
2020-09-18 06:29:10 GMT 44.650208 25.734135 4,850 147 248 -768
2020-09-18 06:29:07 GMT 44.653976 25.730764 4,900 147 249 -960
2020-09-18 06:29:00 GMT 44.660309 25.725157 5,025 147 251 -1216
2020-09-18 06:28:55 GMT 44.665237 25.720760 5,075 147 253 -832
2020-09-18 06:28:50 GMT 44.670364 25.716183 5,175 147 257 -576
2020-09-18 06:28:45 GMT 44.675995 25.711157 5,225 147 259 -512
2020-09-18 06:28:38 GMT 44.683868 25.704084 5,300 147 264 -576
2020-09-18 06:28:35 GMT 44.685818 25.702381 5,300 147 266 -576
2020-09-18 06:28:29 GMT 44.691330 25.697414 5,350 147 269 -576
2020-09-18 06:28:26 GMT 44.695316 25.693872 5,400 147 271 -576
2020-09-18 06:28:19 GMT 44.702110 25.687710 5,450 147 275 -576
2020-09-18 06:28:16 GMT 44.706024 25.684158 5,500 147 277 -640
2020-09-18 06:28:09 GMT 44.713257 25.677666 5,600 147 280 -1216
2020-09-18 06:28:04 GMT 44.718361 25.673105 5,700 147 280 -1344
2020-09-18 06:27:59 GMT 44.724319 25.667814 5,825 147 280 -1344
2020-09-18 06:27:55 GMT 44.728554 25.664062 5,925 147 281 -1344
2020-09-18 06:27:52 GMT 44.732883 25.660177 6,000 147 281 -1344
2020-09-18 06:27:48 GMT 44.735779 25.657654 6,075 147 281 -1344
2020-09-18 06:27:45 GMT 44.739670 25.654188 6,225 147 282 -1280
2020-09-18 06:27:38 GMT 44.748013 25.646778 6,300 147 283 -1280
2020-09-18 06:27:34 GMT 44.751736 25.643497 6,350 147 283 -1216
2020-09-18 06:27:28 GMT 44.757980 25.637838 6,525 147 288 -832
2020-09-18 06:27:24 GMT 44.762955 25.633448 6,550 147 288 -832
2020-09-18 06:27:18 GMT 44.769470 25.627571 6,650 147 289 -960
2020-09-18 06:27:15 GMT 44.773361 25.624105 6,700 147 289 -1024
2020-09-18 06:27:07 GMT 44.781372 25.616913 6,825 147 290 -1024
2020-09-18 06:27:04 GMT 44.786232 25.612547 6,900 147 291 -1024
2020-09-18 06:26:57 GMT 44.792656 25.606787 7,025 147 292 -1024
2020-09-18 06:26:53 GMT 44.798149 25.601896 7,075 147 293 -1024
2020-09-18 06:26:47 GMT 44.809742 25.591513 7,275 147 294 -1024
2020-09-18 06:26:43 GMT 44.809742 25.591513 7,250 147 294 -1024
2020-09-18 06:26:37 GMT 44.816444 25.585484 7,400 147 295 -1024
2020-09-18 06:26:33 GMT 44.821106 25.581272 7,425 147 295 -1088
2020-09-18 06:26:26 GMT 44.828934 25.574209 7,525 147 298 -1088
2020-09-18 06:26:23 GMT 44.832733 25.570810 7,600 147 299 -1088
2020-09-18 06:26:16 GMT 44.843678 25.560965 7,725 147 301 -1152
2020-09-18 06:26:13 GMT 44.843678 25.560965 7,850 147 303 -1088
2020-09-18 06:26:06 GMT 44.852280 25.553219 7,900 147 305 -1152
2020-09-18 06:26:01 GMT 44.858276 25.547791 8,000 147 307 -1152
2020-09-18 06:25:58 GMT 44.862110 25.544352 8,050 147 309 -1152
2020-09-18 06:25:55 GMT 44.865692 25.541121 8,100 147 309 -1088
2020-09-18 06:25:52 GMT 44.869186 25.537989 8,150 147 312 -896
2020-09-18 06:25:45 GMT 44.877335 25.530685 8,250 147 316 -704
2020-09-18 06:25:42 GMT 44.881714 25.526733 8,275 147 320 -704
2020-09-18 06:25:36 GMT 44.890465 25.518963 8,375 147 324 -704
2020-09-18 06:25:31 GMT 44.894669 25.515224 8,400 147 327 -832
2020-09-18 06:25:28 GMT 44.899960 25.510454 8,475 147 329 -1024
2020-09-18 06:25:25 GMT 44.902451 25.508226 8,525 147 330 -1408
2020-09-18 06:25:22 GMT 44.907898 25.503387 8,625 147 331 -1472
2020-09-18 06:25:15 GMT 44.916252 25.495918 8,775 147 333 -1536
2020-09-18 06:25:12 GMT 44.919800 25.492792 8,875 147 335 -1920
2020-09-18 06:25:07 GMT 44.926437 25.486776 9,025 147 334 -1984
2020-09-18 06:25:04 GMT 44.930283 25.483311 9,125 147 335 -1920
2020-09-18 06:25:01 GMT 44.933807 25.480106 9,250 147 335 -1792
2020-09-18 06:24:57 GMT 44.939854 25.474682 9,325 147 336 -1536
2020-09-18 06:24:54 GMT 44.942459 25.472338 9,375 147 337 -1408
2020-09-18 06:24:51 GMT 44.947163 25.468050 9,600 147 339 -1344
2020-09-18 06:24:44 GMT 44.956879 25.459246 9,625 147 341 -1536
2020-09-18 06:24:40 GMT 44.962418 25.454210 10,050 147 342 -1856
2020-09-18 06:24:35 GMT 44.969368 25.447819 9,925 147 343 -1792
2020-09-18 06:24:30 GMT 44.975655 25.442125 10,050 147 343 -1920
2020-09-18 06:24:24 GMT 44.983196 25.435291 10,250 147 344 -1856
2020-09-18 06:24:20 GMT 44.988556 25.430471 10,325 147 345 -1600
2020-09-18 06:24:17 GMT 44.993591 25.425896 10,400 147 349 -384
2020-09-18 06:24:13 GMT 44.997757 25.422167 10,400 147 353 -64
2020-09-18 06:24:09 GMT 45.003120 25.417273 10,400 147 358 64
2020-09-18 06:24:06 GMT 45.008148 25.412718 10,400 147 363 -64
2020-09-18 06:24:00 GMT 45.016853 25.404879 10,425 147 373 -320
2020-09-18 06:23:56 GMT 45.029003 25.393826 10,500 147 378 -1280
2020-09-18 06:23:51 GMT 45.029003 25.393826 10,550 147 379 -1536
2020-09-18 06:23:46 GMT 45.037491 25.386135 10,725 147 381 -2304
2020-09-18 06:23:43 GMT 45.040512 25.383389 10,800 147 381 -2496
2020-09-18 06:23:39 GMT 45.048798 25.375868 11,050 147 382 -2624
2020-09-18 06:23:34 GMT 45.056442 25.368937 11,250 147 383 -2496
2020-09-18 06:23:29 GMT 45.063778 25.362341 11,575 147 384 -2432
2020-09-18 06:23:23 GMT 45.070541 25.356184 11,650 147 385 -2432
2020-09-18 06:23:18 GMT 45.077789 25.349611 11,850 147 386 -2496
2020-09-18 06:23:15 GMT 45.088348 25.340031 12,125 147 387 -2496
2020-09-18 06:23:05 GMT 45.098225 25.331057 12,400 147 389 -2496
2020-09-18 06:23:02 GMT 45.101856 25.327774 12,500 147 390 -2496
2020-09-18 06:22:58 GMT 45.108002 25.322147 12,675 147 390 -2496
2020-09-18 06:22:55 GMT 45.113251 25.317406 12,900 147 391 -2432
2020-09-18 06:22:52 GMT 45.117126 25.313908 12,925 147 392 -2432
2020-09-18 06:22:48 GMT 45.125015 25.306681 13,200 147 393 -2432
2020-09-18 06:22:45 GMT 45.128761 25.303322 13,225 147 394 -2432
2020-09-18 06:22:38 GMT 45.139751 25.293341 13,525 147 395 -2432
2020-09-18 06:22:33 GMT 45.148129 25.285704 13,750 147 397 -2560
2020-09-18 06:22:26 GMT 45.157242 25.277449 13,975 147 397 -2560
2020-09-18 06:22:22 GMT 45.164051 25.271235 14,175 147 398 -2496
2020-09-18 06:22:18 GMT 45.170746 25.265154 14,375 147 399 -2496
2020-09-18 06:22:15 GMT 45.176788 25.259661 14,525 147 400 -2560
2020-09-18 06:22:12 GMT 45.180576 25.256229 14,525 147 400 -2560
2020-09-18 06:22:06 GMT 45.189102 25.248478 14,850 147 402 -2560
2020-09-18 06:22:02 GMT 45.195694 25.242462 15,050 147 403 -2496
2020-09-18 06:21:58 GMT 45.203667 25.235262 15,250 147 405 -2432
2020-09-18 06:21:55 GMT 45.207596 25.231737 15,375 147 406 -2432
2020-09-18 06:21:52 GMT 45.211720 25.227959 15,450 147 406 -2432
2020-09-18 06:21:48 GMT 45.218033 25.222191 15,675 147 408 -2496
2020-09-18 06:21:45 GMT 45.222198 25.218397 15,800 147 409 -2624
2020-09-18 06:21:42 GMT 45.228619 25.212551 15,925 147 409 -2624
2020-09-18 06:21:37 GMT 45.239605 25.202436 16,150 146 412 -2624
2020-09-18 06:21:34 GMT 45.239605 25.202436 16,275 146 412 -2560
2020-09-18 06:21:31 GMT 45.244354 25.198080 16,350 146 412 -2560
2020-09-18 06:21:28 GMT 45.249798 25.193056 16,575 146 414 -2560
2020-09-18 06:21:24 GMT 45.256256 25.187138 16,825 147 415 -2560
2020-09-18 06:21:21 GMT 45.260551 25.183210 16,775 147 415 -2560
2020-09-18 06:21:17 GMT 45.272324 25.172424 16,975 147 417 -2624
2020-09-18 06:21:14 GMT 45.272324 25.172424 17,125 146 418 -2688
2020-09-18 06:21:11 GMT 45.277130 25.167976 17,225 147 419 -2752
2020-09-18 06:21:07 GMT 45.284592 25.161112 17,475 147 420 -2752
2020-09-18 06:21:04 GMT 45.289627 25.156532 17,575 147 420 -2816
2020-09-18 06:21:01 GMT 45.293930 25.152529 17,700 147 421 -2752
2020-09-18 06:20:54 GMT 45.310875 25.136988 17,950 147 426 -1728
2020-09-18 06:20:51 GMT 45.310875 25.136988 18,025 147 428 -1408
2020-09-18 06:20:47 GMT 45.316635 25.131748 18,175 147 432 -1792
2020-09-18 06:20:43 GMT 45.322559 25.126268 18,275 147 436 -1984
2020-09-18 06:20:40 GMT 45.327354 25.121847 18,325 147 434 -1984
2020-09-18 06:20:36 GMT 45.335083 25.114746 18,475 147 437 -1984
2020-09-18 06:20:33 GMT 45.340111 25.110125 18,625 147 438 -2048
2020-09-18 06:20:30 GMT 45.344627 25.105970 18,675 147 439 -2048
2020-09-18 06:20:25 GMT 45.354355 25.097025 18,800 147 440 -2048
2020-09-18 06:20:21 GMT 45.359291 25.092505 18,950 147 442 -1984
2020-09-18 06:20:15 GMT 45.372299 25.080610 19,225 147 445 -2048
2020-09-18 06:20:11 GMT 45.376831 25.076426 19,300 147 445 -2048
2020-09-18 06:20:05 GMT 45.393082 25.061516 19,575 147 448 -1984
2020-09-18 06:20:02 GMT 45.393082 25.061516 19,625 147 448 -1984
2020-09-18 06:19:59 GMT 45.397648 25.057337 19,750 147 449 -1984
2020-09-18 06:19:56 GMT 45.410313 25.045748 19,875 147 449 -2112
2020-09-18 06:19:53 GMT 45.410313 25.045748 19,950 147 449 -2048
2020-09-18 06:19:46 GMT 45.420593 25.036272 20,150 147 449 -1984
2020-09-18 06:19:43 GMT 45.425861 25.031479 20,200 147 450 -1920
2020-09-18 06:19:40 GMT 45.430618 25.027117 20,350 147 452 -1984
2020-09-18 06:19:32 GMT 45.452179 25.007368 20,750 147 453 -2048
2020-09-18 06:19:25 GMT 45.459797 25.000395 20,900 147 454 -1984
2020-09-18 06:19:20 GMT 45.466461 24.994289 21,000 147 455 -1984
2020-09-18 06:19:17 GMT 45.479767 24.982038 21,350 147 461 -2048
2020-09-18 06:19:13 GMT 45.479767 24.982038 21,275 147 458 -2048
2020-09-18 06:19:10 GMT 45.484653 24.977551 21,700 147 459 -2048
2020-09-18 06:19:03 GMT 45.498322 24.964928 21,700 147 461 -2048
2020-09-18 06:18:59 GMT 45.504639 24.959106 21,725 147 461 -2048
2020-09-18 06:18:52 GMT 45.521152 24.943855 22,050 146 464 -2048
2020-09-18 06:18:46 GMT 45.527527 24.937920 22,200 146 465 -2048
2020-09-18 06:18:43 GMT 45.532185 24.933605 22,300 146 465 -2048
2020-09-18 06:18:40 GMT 45.538563 24.927711 22,400 146 466 -1984
2020-09-18 06:18:37 GMT 45.542908 24.923662 22,475 146 467 -1984
2020-09-18 06:18:34 GMT 45.551041 24.916100 22,650 146 468 -2048
2020-09-18 06:18:31 GMT 45.554810 24.912571 22,775 146 470 -2048
2020-09-18 06:18:28 GMT 45.561234 24.906555 22,825 146 472 -2048
2020-09-18 06:18:22 GMT 45.572205 24.896292 23,025 146 472 -2048
2020-09-18 06:18:19 GMT 45.576645 24.892136 23,100 146 473 -2048
2020-09-18 06:18:13 GMT 45.588089 24.881489 23,325 146 475 -2048
2020-09-18 06:18:09 GMT 45.603874 24.866730 23,600 146 478 -2048
2020-09-18 06:18:02 GMT 45.606949 24.863869 23,675 146 479 -2048
2020-09-18 06:17:59 GMT 45.613419 24.857872 23,775 146 481 -2048
2020-09-18 06:17:56 GMT 45.618576 24.853018 23,875 146 482 -2048
2020-09-18 06:17:51 GMT 45.629761 24.842628 24,075 146 484 -2048
2020-09-18 06:17:43 GMT 45.645027 24.828552 24,350 146 486 -2048
2020-09-18 06:17:39 GMT 45.652710 24.821342 24,500 146 487 -2048
2020-09-18 06:17:32 GMT 45.663895 24.810947 24,700 146 488 -2048
2020-09-18 06:17:28 GMT 45.671795 24.803627 24,825 146 490 -2048
2020-09-18 06:17:22 GMT 45.683620 24.792641 25,025 146 492 -1984
2020-09-18 06:17:18 GMT 45.693069 24.783852 25,200 146 493 -1920
2020-09-18 06:17:10 GMT 45.707520 24.770418 25,450 146 493 -1920
2020-09-18 06:17:07 GMT 45.712051 24.766197 25,525 146 493 -1856
2020-09-18 06:17:00 GMT 45.725830 24.753403 25,800 147 492 -1856
2020-09-18 06:16:56 GMT 45.731506 24.748178 25,850 147 490 -1856
2020-09-18 06:16:50 GMT 45.745697 24.735048 26,100 146 489 -1792
2020-09-18 06:16:47 GMT 45.751354 24.729813 26,175 146 489 -1792
2020-09-18 06:16:39 GMT 45.765930 24.716225 26,425 146 488 -2560
2020-09-18 06:16:36 GMT 45.772255 24.710243 26,600 146 488 -3520
2020-09-18 06:16:29 GMT 45.785477 24.697935 27,000 146 488 -3712
2020-09-18 06:16:25 GMT 45.790237 24.693447 27,525 146 487 -3776
2020-09-18 06:16:19 GMT 45.802979 24.681541 27,650 146 487 -3648
2020-09-18 06:16:16 GMT 45.810150 24.674812 27,825 146 487 -3648
2020-09-18 06:16:11 GMT 45.818481 24.667053 28,100 146 487 -3712
2020-09-18 06:16:08 GMT 45.824532 24.661354 28,300 146 486 -3648
2020-09-18 06:16:05 GMT 45.831024 24.655195 28,500 146 486 -3584
2020-09-18 06:16:01 GMT 45.837845 24.648832 28,725 146 486 -3584
2020-09-18 06:15:57 GMT 45.844803 24.642334 28,950 146 486 -3584
2020-09-18 06:15:54 GMT 45.848694 24.638651 29,050 146 487 -3456
2020-09-18 06:15:48 GMT 45.861263 24.626953 29,525 146 486 -3584
2020-09-18 06:15:45 GMT 45.867966 24.620695 29,650 146 485 -3712
2020-09-18 06:15:40 GMT 45.876938 24.612324 29,950 146 484 -3840
2020-09-18 06:15:37 GMT 45.882442 24.607178 30,125 146 484 -3840
2020-09-18 06:15:34 GMT 45.886963 24.602877 30,275 146 483 -3520
2020-09-18 06:15:29 GMT 45.896393 24.594034 30,550 146 484 -2816
2020-09-18 06:15:26 GMT 45.901485 24.589188 30,675 146 484 -2496
2020-09-18 06:15:23 GMT 45.907059 24.583920 30,775 146 485 -2112
2020-09-18 06:15:20 GMT 45.920013 24.571728 30,925 146 485 -1408
2020-09-18 06:15:17 GMT 45.920013 24.571728 30,950 146 486 -896
2020-09-18 06:15:13 GMT 45.925690 24.566368 30,975 146 487 -448
2020-09-18 06:15:10 GMT 45.933418 24.559044 31,000 146 488 -128
2020-09-18 06:15:07 GMT 45.940247 24.552568 31,000 146 489 64
2020-09-18 06:15:04 GMT 45.947983 24.545265 31,000 146 489 0
2020-09-18 06:14:59 GMT 45.952698 24.540777 31,000 146 489 0
2020-09-18 06:14:56 GMT 45.959396 24.534393 31,000 146 489 0
2020-09-18 06:14:51 GMT 45.966984 24.527252 31,000 146 489 64
2020-09-18 06:14:46 GMT 45.978436 24.516403 31,000 146 489 0
2020-09-18 06:14:39 GMT 45.990772 24.504662 31,000 146 489 64
2020-09-18 06:14:36 GMT 45.998825 24.497040 31,000 146 489 64
2020-09-18 06:14:32 GMT 46.005569 24.490669 30,975 146 490 64
2020-09-18 06:14:28 GMT 46.013580 24.483099 31,000 146 490 -128
2020-09-18 06:14:25 GMT 46.017197 24.479683 31,000 146 490 -448
2020-09-18 06:14:21 GMT 46.024887 24.472382 31,075 146 490 -960
2020-09-18 06:14:17 GMT 46.037601 24.460373 31,175 146 490 -960
2020-09-18 06:14:08 GMT 46.049606 24.449001 31,300 146 489 -960
2020-09-18 06:14:05 GMT 46.055649 24.443308 31,325 146 489 -960
2020-09-18 06:14:01 GMT 46.063721 24.435654 31,400 146 488 -960
2020-09-18 06:13:58 GMT 46.068787 24.430847 31,450 146 488 -960
2020-09-18 06:13:55 GMT 46.075424 24.424618 31,500 146 487 -960
2020-09-18 06:13:50 GMT 46.083176 24.417252 31,550 146 487 -960
2020-09-18 06:13:47 GMT 46.088791 24.411888 31,600 146 487 -896
2020-09-18 06:13:44 GMT 46.095291 24.405792 31,650 146 485 -896
2020-09-18 06:13:39 GMT 46.102776 24.398712 31,725 146 485 -896
2020-09-18 06:13:36 GMT 46.108688 24.393150 31,775 146 484 -960
2020-09-18 06:13:33 GMT 46.114323 24.387794 31,825 146 483 -1024
2020-09-18 06:13:29 GMT 46.121910 24.380585 31,900 146 482 -1024
2020-09-18 06:13:26 GMT 46.127243 24.375582 31,950 146 482 -1024
2020-09-18 06:13:23 GMT 46.133652 24.369486 31,975 146 481 -1024
2020-09-18 06:13:17 GMT 46.146069 24.357719 32,125 146 481 -960
2020-09-18 06:13:14 GMT 46.152649 24.351463 32,175 146 481 -960
2020-09-18 06:13:06 GMT 46.171188 24.333845 32,300 146 482 -1024
2020-09-18 06:13:03 GMT 46.171188 24.333845 32,325 146 482 -960
2020-09-18 06:12:58 GMT 46.179543 24.325928 32,450 146 485 -960
2020-09-18 06:12:55 GMT 46.185036 24.320709 32,450 146 484 -960
2020-09-18 06:12:52 GMT 46.190735 24.315224 32,500 146 485 -960
2020-09-18 06:12:48 GMT 46.198105 24.308256 32,575 146 485 -960
2020-09-18 06:12:44 GMT 46.205795 24.300955 32,625 146 486 -960
2020-09-18 06:12:39 GMT 46.217377 24.289968 32,750 146 487 -960
2020-09-18 06:12:36 GMT 46.221252 24.286308 32,750 146 487 -960
2020-09-18 06:12:33 GMT 46.229305 24.278618 32,825 146 488 -896
2020-09-18 06:12:26 GMT 46.240711 24.267769 32,925 146 488 -960
2020-09-18 06:12:22 GMT 46.247955 24.260962 32,975 146 488 -960
2020-09-18 06:12:17 GMT 46.256630 24.252663 33,050 146 488 -960
2020-09-18 06:12:14 GMT 46.263428 24.246208 33,100 146 489 -960
2020-09-18 06:12:11 GMT 46.268005 24.241869 33,150 146 490 -896
2020-09-18 06:12:05 GMT 46.279175 24.231218 33,250 146 489 -896
2020-09-18 06:12:02 GMT 46.288239 24.222576 33,325 146 489 -960
2020-09-18 06:11:58 GMT 46.295334 24.215742 33,475 146 488 -960
2020-09-18 06:11:55 GMT 46.298107 24.213112 33,400 146 488 -960
2020-09-18 06:11:51 GMT 46.306870 24.204691 33,475 146 487 -960
2020-09-18 06:11:45 GMT 46.317242 24.194778 33,575 146 486 -960
2020-09-18 06:11:41 GMT 46.325592 24.186735 33,650 146 486 -960
2020-09-18 06:11:35 GMT 46.336624 24.176220 33,725 146 486 -960
2020-09-18 06:11:30 GMT 46.344864 24.168314 33,800 146 485 -960
2020-09-18 06:11:25 GMT 46.355183 24.158386 33,900 146 485 -960
2020-09-18 06:11:21 GMT 46.363701 24.150146 33,975 146 485 -960
2020-09-18 06:11:13 GMT 46.377899 24.136482 34,075 146 484 -960
2020-09-18 06:11:09 GMT 46.384003 24.130598 34,125 146 484 -960
2020-09-18 06:11:06 GMT 46.391876 24.123030 34,225 146 484 -960
2020-09-18 06:11:03 GMT 46.397049 24.118006 34,300 146 483 -896
2020-09-18 06:10:59 GMT 46.402679 24.112579 34,300 146 483 -960
2020-09-18 06:10:55 GMT 46.412155 24.103401 34,375 146 483 -960
2020-09-18 06:10:48 GMT 46.423370 24.092615 34,475 146 483 -960
2020-09-18 06:10:42 GMT 46.435272 24.081160 34,575 146 483 -896
2020-09-18 06:10:38 GMT 46.441116 24.075508 34,625 146 483 -960
2020-09-18 06:10:32 GMT 46.453407 24.063629 34,900 146 483 -960
2020-09-18 06:10:28 GMT 46.460907 24.056374 34,800 146 483 -960
2020-09-18 06:10:24 GMT 46.468597 24.049006 34,850 146 482 -960
2020-09-18 06:10:21 GMT 46.472729 24.044952 34,900 146 482 -960
2020-09-18 06:10:18 GMT 46.478966 24.038910 34,925 146 482 -960
2020-09-18 06:10:11 GMT 46.491535 24.026756 35,050 146 483 -960
2020-09-18 06:10:06 GMT 46.501076 24.017555 35,125 146 482 -960
2020-09-18 06:10:01 GMT 46.510201 24.008698 35,200 146 482 -960
2020-09-18 06:09:57 GMT 46.517395 24.001711 35,275 146 482 -896
2020-09-18 06:09:51 GMT 46.528519 23.990858 35,350 146 481 -960
2020-09-18 06:09:47 GMT 46.535934 23.983690 35,425 146 480 -960
2020-09-18 06:09:41 GMT 46.548283 23.971687 35,525 146 480 -960
2020-09-18 06:09:37 GMT 46.555023 23.965200 35,575 146 480 -896
2020-09-18 06:09:31 GMT 46.566483 23.954041 35,675 146 480 -832
2020-09-18 06:09:25 GMT 46.577656 23.943260 35,750 146 478 -832
2020-09-18 06:09:21 GMT 46.585464 23.935659 35,825 146 477 -832
2020-09-18 06:09:17 GMT 46.592087 23.929253 35,875 146 475 -896
2020-09-18 06:09:10 GMT 46.604004 23.917717 35,975 146 475 -896
2020-09-18 06:09:06 GMT 46.611267 23.910713 36,050 146 473 -960
2020-09-18 06:09:00 GMT 46.623184 23.899246 36,150 146 471 -960
2020-09-18 06:08:55 GMT 46.631058 23.891645 36,400 146 467 -960
2020-09-18 06:08:50 GMT 46.640991 23.882067 36,300 146 469 -960
2020-09-18 06:08:46 GMT 46.648788 23.874596 36,350 146 469 -896
2020-09-18 06:08:40 GMT 46.659260 23.864502 36,450 146 468 -896
2020-09-18 06:08:36 GMT 46.666809 23.857212 36,550 146 467 -960
2020-09-18 06:08:30 GMT 46.677292 23.847097 36,600 146 466 -896
2020-09-18 06:08:25 GMT 46.685669 23.838991 36,625 146 467 -960
2020-09-18 06:08:20 GMT 46.695293 23.829620 36,750 146 466 -1024
2020-09-18 06:08:13 GMT 46.706745 23.818428 36,875 146 466 -1088
2020-09-18 06:08:09 GMT 46.714005 23.811325 36,925 146 466 -1024
2020-09-18 06:08:04 GMT 46.733231 23.792501 37,025 146 466 0
2020-09-18 06:08:00 GMT 46.733231 23.792501 37,025 146 466 0
2020-09-18 06:07:54 GMT 46.740692 23.785267 37,000 146 466 0
2020-09-18 06:07:49 GMT 46.750271 23.775856 37,000 146 465 64
2020-09-18 06:07:45 GMT 46.758556 23.767822 37,000 146 465 64
2020-09-18 06:07:39 GMT 46.769165 23.757465 37,000 146 465 0
2020-09-18 06:07:33 GMT 46.778000 23.748892 37,000 146 465 64
2020-09-18 06:07:29 GMT 46.786102 23.740919 37,000 146 465 64
2020-09-18 06:07:24 GMT 46.796127 23.731138 37,000 146 466 64
2020-09-18 06:07:19 GMT 46.804504 23.722916 37,000 146 466 0
2020-09-18 06:07:13 GMT 46.814560 23.713097 37,000 146 466 -128
2020-09-18 06:07:08 GMT 46.823498 23.704376 37,000 146 465 -128
2020-09-18 06:07:04 GMT 46.832840 23.695166 37,000 146 465 0
2020-09-18 06:06:59 GMT 46.840954 23.687210 37,000 146 465 64
2020-09-18 06:06:52 GMT 46.854362 23.674026 37,000 146 466 0
2020-09-18 06:06:48 GMT 46.859436 23.669083 37,000 146 466 0
2020-09-18 06:06:42 GMT 46.870422 23.658302 37,000 146 466 -64
2020-09-18 06:06:38 GMT 46.877701 23.651093 37,000 146 466 -64
2020-09-18 06:06:33 GMT 46.888184 23.640793 37,000 146 467 0
2020-09-18 06:06:27 GMT 46.896351 23.632719 37,000 146 467 0
2020-09-18 06:06:22 GMT 46.905663 23.623564 37,000 146 467 64
2020-09-18 06:06:18 GMT 46.914227 23.615183 37,000 146 468 0
2020-09-18 06:06:12 GMT 46.923477 23.606049 37,000 146 468 0
2020-09-18 06:06:06 GMT 46.933826 23.595957 37,000 146 469 64
2020-09-18 06:06:03 GMT 46.941833 23.588058 37,000 146 469 0
2020-09-18 06:05:57 GMT 46.951355 23.578720 37,000 146 470 -64
2020-09-18 06:05:51 GMT 46.962688 23.567575 37,000 146 470 -64
2020-09-18 06:05:47 GMT 46.969299 23.561026 37,000 146 470 0
2020-09-18 06:05:41 GMT 46.980053 23.550392 37,000 145 470 64
2020-09-18 06:05:37 GMT 46.987129 23.543419 37,000 145 470 0
2020-09-18 06:05:30 GMT 47.002956 23.527716 37,000 145 470 0
2020-09-18 06:05:27 GMT 47.006561 23.524132 37,000 145 470 0
2020-09-18 06:05:22 GMT 47.015759 23.515038 37,000 145 470 0
2020-09-18 06:05:19 GMT 47.021164 23.509712 37,000 145 470 0
2020-09-18 06:05:16 GMT 47.024792 23.506094 37,000 145 470 0
2020-09-18 06:05:10 GMT 47.034565 23.496447 37,000 145 470 -64
2020-09-18 06:05:06 GMT 47.042759 23.488277 37,000 145 470 -64
2020-09-18 06:05:01 GMT 47.052017 23.479088 37,000 145 469 0
2020-09-18 06:04:55 GMT 47.061905 23.469269 37,000 145 469 0
2020-09-18 06:04:50 GMT 47.070877 23.460388 37,000 145 468 0
2020-09-18 06:04:45 GMT 47.079769 23.451586 37,000 145 468 0
2020-09-18 06:04:41 GMT 47.089050 23.442352 37,000 145 468 64
2020-09-18 06:04:36 GMT 47.098202 23.433346 37,000 145 468 0
2020-09-18 06:04:30 GMT 47.107315 23.424294 37,000 145 468 0
2020-09-18 06:04:24 GMT 47.118404 23.413416 37,000 146 467 0
2020-09-18 06:04:18 GMT 47.128742 23.403202 37,000 146 467 0
2020-09-18 06:04:15 GMT 47.134232 23.397789 37,000 146 467 0
2020-09-18 06:04:07 GMT 47.149921 23.382286 37,000 145 466 0
2020-09-18 06:03:54 GMT 47.171677 23.360641 37,000 145 465 -64
2020-09-18 06:03:46 GMT 47.185822 23.346634 37,000 146 464 0
2020-09-18 06:03:39 GMT 47.197952 23.334618 37,000 145 465 0
2020-09-18 06:03:34 GMT 47.207554 23.324469 37,000 142 465 64
2020-09-18 06:03:26 GMT 47.220886 23.309143 37,000 140 466 0
2020-09-18 06:03:23 GMT 47.225197 23.303833 37,000 140 466 0
2020-09-18 06:03:14 GMT 47.240158 23.284012 37,000 134 466 64
2020-09-18 06:03:04 GMT 47.255409 23.261436 37,000 134 466 0
2020-09-18 06:02:55 GMT 47.268265 23.242332 37,000 134 465 -64
2020-09-18 06:02:52 GMT 47.273518 23.234606 37,000 134 463 64
2020-09-18 06:02:44 GMT 47.286694 23.214956 37,000 134 464 0
2020-09-18 06:02:35 GMT 47.298752 23.196857 37,000 134 463 64
2020-09-18 06:02:24 GMT 47.319717 23.165359 37,000 134 463 -64
2020-09-18 06:02:14 GMT 47.329697 23.150322 37,000 134 463 -64
2020-09-18 06:02:11 GMT 47.334270 23.143404 37,000 134 463 -64
2020-09-18 06:02:02 GMT 47.348373 23.122169 37,000 134 463 0
2020-09-18 06:01:58 GMT 47.353729 23.114067 37,000 134 462 64
2020-09-18 06:01:52 GMT 47.363270 23.099670 37,000 134 462 64
2020-09-18 06:01:43 GMT 47.378311 23.076920 37,000 134 462 0
2020-09-18 06:01:32 GMT 47.392731 23.055222 37,000 134 461 0
2020-09-18 06:01:22 GMT 47.407867 23.032413 37,000 134 461 0
2020-09-18 06:01:12 GMT 47.422668 23.010178 37,000 134 461 -64
2020-09-18 06:01:07 GMT 47.430313 22.998642 37,000 134 460 -128
2020-09-18 06:01:02 GMT 47.438034 22.987061 37,025 134 459 0
2020-09-18 06:00:51 GMT 47.455673 22.960258 37,000 134 459 -64
2020-09-18 06:00:43 GMT 47.465836 22.944809 37,000 134 458 64
2020-09-18 06:00:38 GMT 47.472748 22.934303 37,000 134 458 0
2020-09-18 06:00:33 GMT 47.485565 22.914803 37,000 134 458 64
2020-09-18 06:00:26 GMT 47.490311 22.907551 37,000 133 458 64
2020-09-18 06:00:22 GMT 47.495991 22.898817 37,000 133 458 64
2020-09-18 06:00:16 GMT 47.504791 22.885366 37,000 133 457 64
2020-09-18 06:00:13 GMT 47.510517 22.876562 37,000 133 456 64
2020-09-18 06:00:07 GMT 47.517883 22.865227 37,000 134 456 64
2020-09-18 06:00:00 GMT 47.529144 22.848061 37,000 134 455 -64
2020-09-18 05:59:56 GMT 47.536652 22.836594 37,000 134 454 -64
2020-09-18 05:59:50 GMT 47.544125 22.825224 37,000 134 454 0
2020-09-18 05:59:46 GMT 47.549423 22.817162 37,000 134 454 0
2020-09-18 05:59:39 GMT 47.559349 22.802053 37,000 134 454 -64
2020-09-18 05:59:35 GMT 47.565948 22.791962 37,000 134 454 0
2020-09-18 05:59:31 GMT 47.570206 22.785507 37,000 134 454 0
2020-09-18 05:59:28 GMT 47.574944 22.778250 37,000 134 453 64
2020-09-18 05:59:25 GMT 47.579453 22.771431 37,000 134 451 128
2020-09-18 05:59:22 GMT 47.584393 22.763884 37,000 134 453 0
2020-09-18 05:59:17 GMT 47.591309 22.753372 37,000 134 451 -128
2020-09-18 05:59:12 GMT 47.598873 22.741911 37,000 134 451 128
2020-09-18 05:59:09 GMT 47.603153 22.735361 37,025 134 451 128
2020-09-18 05:59:05 GMT 47.610744 22.723883 37,000 134 450 0
2020-09-18 05:59:02 GMT 47.614513 22.718107 37,000 134 451 64
2020-09-18 05:58:57 GMT 47.620007 22.709656 36,950 134 451 -64
2020-09-18 05:58:49 GMT 47.632141 22.691093 37,000 133 451 128
2020-09-18 05:58:46 GMT 47.635849 22.685326 37,000 134 450 128
2020-09-18 05:58:41 GMT 47.643608 22.673529 37,000 134 450 128
2020-09-18 05:58:38 GMT 47.647892 22.666979 37,000 134 450 0
2020-09-18 05:58:31 GMT 47.658051 22.651337 37,000 133 450 0
2020-09-18 05:58:28 GMT 47.662720 22.644196 37,000 133 450 64
2020-09-18 05:58:20 GMT 47.674622 22.625793 37,000 133 449 -128
2020-09-18 05:58:13 GMT 47.684341 22.610991 37,000 134 450 -128
2020-09-18 05:58:09 GMT 47.689774 22.602585 37,000 134 450 64
2020-09-18 05:58:04 GMT 47.696678 22.592115 37,000 134 450 0
2020-09-18 05:58:01 GMT 47.702545 22.583153 37,000 133 449 0
2020-09-18 05:57:57 GMT 47.706894 22.576355 37,000 133 449 -128
2020-09-18 05:57:48 GMT 47.720467 22.555635 37,000 134 450 64
2020-09-18 05:57:44 GMT 47.727859 22.544357 36,975 134 450 64
2020-09-18 05:57:40 GMT 47.731567 22.538658 37,000 133 450 -64
2020-09-18 05:57:37 GMT 47.735275 22.532890 37,000 133 450 -64
2020-09-18 05:57:34 GMT 47.742416 22.521904 37,000 133 451 0
2020-09-18 05:57:27 GMT 47.750839 22.508926 37,000 134 450 -64
2020-09-18 05:57:22 GMT 47.758301 22.497528 37,000 134 450 -64
2020-09-18 05:57:17 GMT 47.764893 22.487297 37,000 133 450 -64
2020-09-18 05:57:13 GMT 47.771210 22.477478 37,000 133 449 64
2020-09-18 05:57:09 GMT 47.775723 22.470491 37,000 133 449 128
2020-09-18 05:57:06 GMT 47.780052 22.463800 37,000 133 449 128
2020-09-18 05:57:01 GMT 47.787594 22.452040 37,000 133 450 -64
2020-09-18 05:56:57 GMT 47.794064 22.442039 37,000 133 450 -128
2020-09-18 05:56:53 GMT 47.799133 22.434219 37,000 133 450 -64
2020-09-18 05:56:50 GMT 47.804947 22.425156 37,000 133 450 64
2020-09-18 05:56:46 GMT 47.808609 22.419525 37,000 133 450 0
2020-09-18 05:56:39 GMT 47.819138 22.403183 37,000 133 449 0
2020-09-18 05:56:36 GMT 47.823067 22.397179 37,000 133 449 0
2020-09-18 05:56:32 GMT 47.830051 22.386333 37,025 133 449 64
2020-09-18 05:56:29 GMT 47.833729 22.380699 37,000 133 449 64
2020-09-18 05:56:26 GMT 47.837814 22.374413 37,000 133 449 64
2020-09-18 05:56:22 GMT 47.843903 22.365005 36,975 133 449 -64
2020-09-18 05:56:19 GMT 47.848526 22.357864 36,975 133 449 -64
2020-09-18 05:56:16 GMT 47.852737 22.351341 37,000 133 449 0
2020-09-18 05:56:12 GMT 47.858540 22.342388 37,000 133 449 0
2020-09-18 05:56:09 GMT 47.863129 22.335274 37,000 133 449 -64
2020-09-18 05:56:05 GMT 47.868221 22.327316 37,000 133 449 -64
2020-09-18 05:56:02 GMT 47.872601 22.320557 37,000 133 449 -64
2020-09-18 05:55:59 GMT 47.877628 22.312738 37,000 133 449 -64
2020-09-18 05:55:56 GMT 47.881531 22.306709 37,000 133 448 0
2020-09-18 05:55:48 GMT 47.892662 22.289358 37,000 133 448 0
2020-09-18 05:55:45 GMT 47.896385 22.283512 37,000 133 448 0
2020-09-18 05:55:42 GMT 47.900856 22.276470 37,000 133 448 0
2020-09-18 05:55:39 GMT 47.906570 22.267570 37,000 133 448 0
2020-09-18 05:55:35 GMT 47.910965 22.260773 37,000 133 447 0
2020-09-18 05:55:27 GMT 47.923920 22.240723 37,000 133 447 -64
2020-09-18 05:55:23 GMT 47.929871 22.231522 37,000 133 447 0
2020-09-18 05:55:18 GMT 47.935768 22.222383 37,000 133 447 64
2020-09-18 05:55:15 GMT 47.939896 22.215935 37,000 133 447 0
2020-09-18 05:55:12 GMT 47.944336 22.209068 37,000 133 447 0
2020-09-18 05:55:05 GMT 47.954407 22.193344 37,000 133 447 0
2020-09-18 05:55:01 GMT 47.959976 22.184706 37,000 133 447 0
2020-09-18 05:54:58 GMT 47.964821 22.177240 37,000 133 446 0
2020-09-18 05:54:55 GMT 47.968918 22.170834 37,000 133 446 0
2020-09-18 05:54:51 GMT 47.974274 22.162445 37,000 133 445 0
2020-09-18 05:54:46 GMT 47.981689 22.150841 37,000 133 445 0
2020-09-18 05:54:42 GMT 47.988934 22.139565 37,000 133 444 0
2020-09-18 05:54:38 GMT 47.993450 22.132450 37,000 133 444 -64
2020-09-18 05:54:34 GMT 47.998013 22.125338 37,000 133 444 0
2020-09-18 05:54:31 GMT 48.002747 22.117950 37,000 133 444 0
2020-09-18 05:54:26 GMT 48.011032 22.104973 37,000 133 444 0
2020-09-18 05:54:22 GMT 48.016354 22.096676 37,000 133 444 0
2020-09-18 05:54:17 GMT 48.022705 22.086708 37,000 133 444 64
2020-09-18 05:54:13 GMT 48.030029 22.075172 37,000 133 443 0
2020-09-18 05:54:04 GMT 48.041290 22.057594 37,000 133 443 0
2020-09-18 05:54:01 GMT 48.045216 22.051392 37,000 133 443 64
2020-09-18 05:53:57 GMT 48.050896 22.042519 37,000 133 442 64
2020-09-18 05:53:54 GMT 48.055363 22.035477 37,000 133 443 0
2020-09-18 05:53:51 GMT 48.059738 22.028503 37,000 133 442 -64
2020-09-18 05:53:46 GMT 48.065598 22.019279 37,000 133 442 0
2020-09-18 05:53:43 GMT 48.069992 22.012344 37,000 133 442 -64
2020-09-18 05:53:40 GMT 48.075611 22.003502 37,000 133 442 -64
2020-09-18 05:53:35 GMT 48.082596 21.992516 37,000 133 441 0
2020-09-18 05:53:32 GMT 48.087021 21.985615 37,000 133 441 0
2020-09-18 05:53:26 GMT 48.094162 21.974373 37,000 133 440 0
2020-09-18 05:53:23 GMT 48.098564 21.967445 37,000 133 440 0
2020-09-18 05:53:20 GMT 48.102905 21.960571 37,000 133 440 -64
2020-09-18 05:53:16 GMT 48.108292 21.952091 37,000 133 440 -64
2020-09-18 05:53:13 GMT 48.112484 21.945473 37,000 133 439 -128
2020-09-18 05:53:10 GMT 48.116547 21.939011 37,000 133 438 128
2020-09-18 05:53:06 GMT 48.122211 21.930119 37,000 133 438 128
2020-09-18 05:53:03 GMT 48.126450 21.923498 37,000 133 439 0
2020-09-18 05:52:59 GMT 48.131847 21.914907 37,000 133 439 -64
2020-09-18 05:52:53 GMT 48.140694 21.901033 37,000 133 439 192
2020-09-18 05:52:49 GMT 48.145111 21.893898 36,975 133 438 128
2020-09-18 05:52:46 GMT 48.151169 21.884342 36,975 133 439 -64
2020-09-18 05:52:42 GMT 48.160034 21.870209 37,000 133 438 -64
2020-09-18 05:52:39 GMT 48.160034 21.870209 37,000 133 438 0
2020-09-18 05:52:34 GMT 48.167599 21.858383 37,000 133 438 -64
2020-09-18 05:52:31 GMT 48.178711 21.840891 37,000 133 437 -128
2020-09-18 05:52:26 GMT 48.178711 21.840891 37,025 133 437 0
2020-09-18 05:52:23 GMT 48.181595 21.836313 37,025 133 436 0
2020-09-18 05:52:20 GMT 48.186310 21.828918 37,025 133 437 128
2020-09-18 05:52:13 GMT 48.196335 21.813143 36,975 133 437 64
2020-09-18 05:52:10 GMT 48.201817 21.804537 36,975 133 436 128
2020-09-18 05:52:02 GMT 48.211578 21.789059 36,975 133 436 -192
2020-09-18 05:51:55 GMT 48.221970 21.772509 37,025 133 436 -64
2020-09-18 05:51:51 GMT 48.226685 21.765114 37,025 133 436 128
2020-09-18 05:51:48 GMT 48.230911 21.758423 37,000 133 435 192
2020-09-18 05:51:44 GMT 48.236115 21.750113 37,000 133 435 0
2020-09-18 05:51:40 GMT 48.242111 21.740536 37,000 133 435 -256
2020-09-18 05:51:33 GMT 48.251629 21.725319 37,000 133 434 0
2020-09-18 05:51:30 GMT 48.256897 21.716942 36,975 133 435 256
2020-09-18 05:51:24 GMT 48.264057 21.705587 37,000 133 434 -64
2020-09-18 05:51:20 GMT 48.269394 21.697012 37,000 133 434 0
2020-09-18 05:51:17 GMT 48.275043 21.688025 37,000 133 434 -64
2020-09-18 05:51:13 GMT 48.277927 21.683397 37,000 133 434 -192
2020-09-18 05:51:10 GMT 48.283401 21.674686 37,000 132 434 -64
2020-09-18 05:51:05 GMT 48.288895 21.665813 37,000 133 434 0
2020-09-18 05:51:02 GMT 48.293793 21.657997 37,000 133 433 0
2020-09-18 05:50:58 GMT 48.299904 21.648197 37,025 133 434 128
2020-09-18 05:50:54 GMT 48.304916 21.640179 37,000 133 433 192
2020-09-18 05:50:51 GMT 48.308422 21.634539 37,000 133 434 128
2020-09-18 05:50:48 GMT 48.313980 21.625742 37,000 133 435 64
2020-09-18 05:50:45 GMT 48.321854 21.613207 37,000 133 435 -64
2020-09-18 05:50:42 GMT 48.321854 21.613207 36,975 133 435 -128
2020-09-18 05:50:38 GMT 48.327896 21.603628 37,025 133 435 -128
2020-09-18 05:50:35 GMT 48.330532 21.599409 37,000 133 435 64
2020-09-18 05:50:31 GMT 48.336227 21.590319 37,000 133 435 0
2020-09-18 05:50:28 GMT 48.340393 21.583698 37,000 133 434 -128
2020-09-18 05:50:25 GMT 48.344219 21.577581 37,000 133 435 64
2020-09-18 05:50:21 GMT 48.349869 21.568558 37,000 132 434 0
2020-09-18 05:50:18 GMT 48.355251 21.559874 37,000 133 434 -64
2020-09-18 05:50:15 GMT 48.358185 21.555103 37,000 133 434 -128
2020-09-18 05:50:11 GMT 48.363773 21.546213 37,025 133 434 0
2020-09-18 05:50:08 GMT 48.369217 21.537468 37,000 133 434 256
2020-09-18 05:50:05 GMT 48.371292 21.534189 37,000 133 434 192
2020-09-18 05:49:59 GMT 48.380157 21.519976 37,000 133 433 0
2020-09-18 05:49:56 GMT 48.385418 21.511593 37,000 133 434 64
2020-09-18 05:49:50 GMT 48.391937 21.501257 37,000 133 434 0
2020-09-18 05:49:47 GMT 48.397614 21.492146 37,000 133 434 -64
2020-09-18 05:49:44 GMT 48.400314 21.487848 37,000 133 434 0
2020-09-18 05:49:39 GMT 48.408089 21.475452 37,000 133 434 -64
2020-09-18 05:49:36 GMT 48.411255 21.470453 37,000 133 433 -64
2020-09-18 05:49:33 GMT 48.419914 21.456659 37,000 133 433 0
2020-09-18 05:49:30 GMT 48.424713 21.448975 37,000 133 433 -64
2020-09-18 05:49:27 GMT 48.424713 21.448975 37,000 133 433 0
2020-09-18 05:49:22 GMT 48.432854 21.435989 37,025 133 432 0
2020-09-18 05:49:18 GMT 48.436340 21.430382 37,000 133 432 64
2020-09-18 05:49:14 GMT 48.441284 21.422495 37,000 133 432 64
2020-09-18 05:49:08 GMT 48.449615 21.409115 37,025 133 430 -64
2020-09-18 05:49:04 GMT 48.455292 21.399960 37,000 132 431 -128
2020-09-18 05:49:00 GMT 48.461437 21.390018 37,025 132 431 64
2020-09-18 05:48:56 GMT 48.466698 21.381491 37,000 132 431 -64
2020-09-18 05:48:53 GMT 48.475266 21.367613 37,000 132 430 -64
2020-09-18 05:48:50 GMT 48.475266 21.367613 37,000 132 430 -64
2020-09-18 05:48:46 GMT 48.479919 21.360027 37,000 132 430 128
2020-09-18 05:48:42 GMT 48.485554 21.350918 37,000 133 430 192
2020-09-18 05:48:39 GMT 48.489029 21.345238 37,000 133 430 128
2020-09-18 05:48:36 GMT 48.493652 21.337763 37,000 132 430 64
2020-09-18 05:48:31 GMT 48.500450 21.326777 37,000 133 430 0
2020-09-18 05:48:28 GMT 48.505280 21.318970 37,000 133 430 -64
2020-09-18 05:48:24 GMT 48.509525 21.312103 37,000 133 430 -64
2020-09-18 05:48:20 GMT 48.515160 21.303068 37,000 133 430 -64
2020-09-18 05:48:17 GMT 48.518978 21.296852 37,000 133 429 0
2020-09-18 05:48:14 GMT 48.523399 21.289698 37,000 132 430 -64
2020-09-18 05:48:11 GMT 48.527542 21.282974 37,000 132 430 0
2020-09-18 05:48:08 GMT 48.531872 21.276035 37,000 132 430 0
2020-09-18 05:48:05 GMT 48.535873 21.269531 37,000 132 430 0
2020-09-18 05:48:02 GMT 48.539646 21.263388 37,000 133 429 64
2020-09-18 05:47:59 GMT 48.542904 21.258184 37,000 133 429 0
2020-09-18 05:47:56 GMT 48.552261 21.243076 37,000 132 428 64
2020-09-18 05:47:50 GMT 48.557190 21.235023 37,000 132 428 64
2020-09-18 05:47:47 GMT 48.560120 21.230234 37,000 132 428 64
2020-09-18 05:47:44 GMT 48.564274 21.223490 37,000 132 429 64
2020-09-18 05:47:41 GMT 48.569138 21.215515 37,000 132 430 64
2020-09-18 05:47:38 GMT 48.573025 21.209106 37,000 132 430 -64
2020-09-18 05:47:34 GMT 48.577026 21.202530 37,000 132 430 -64
2020-09-18 05:47:31 GMT 48.582520 21.193495 37,000 132 430 -64
2020-09-18 05:47:28 GMT 48.584755 21.189880 37,000 132 430 -64
2020-09-18 05:47:25 GMT 48.594727 21.173613 37,000 132 425 128
2020-09-18 05:47:22 GMT 48.596672 21.170437 37,000 132 430 0
2020-09-18 05:47:16 GMT 48.601330 21.162848 37,000 133 430 -64
2020-09-18 05:47:11 GMT 48.607658 21.152657 37,000 133 430 -64
2020-09-18 05:47:08 GMT 48.612671 21.144527 37,000 133 430 -64
2020-09-18 05:47:05 GMT 48.617935 21.136005 37,025 133 428 0
2020-09-18 05:47:02 GMT 48.620636 21.131639 37,025 133 428 0
2020-09-18 05:46:57 GMT 48.626839 21.121576 37,000 133 428 0
2020-09-18 05:46:54 GMT 48.634750 21.108856 37,000 132 425 64
2020-09-18 05:46:48 GMT 48.638988 21.101990 37,000 133 426 0
2020-09-18 05:46:45 GMT 48.642712 21.095991 37,025 132 425 64
2020-09-18 05:46:42 GMT 48.648651 21.086285 37,000 132 425 64
2020-09-18 05:46:38 GMT 48.653000 21.079294 37,000 132 425 128
2020-09-18 05:46:35 GMT 48.656445 21.073729 37,000 132 424 64
2020-09-18 05:46:32 GMT 48.660461 21.067200 37,000 132 424 64
2020-09-18 05:46:29 GMT 48.665382 21.059130 36,975 132 429 0
2020-09-18 05:46:26 GMT 48.669342 21.052692 37,000 132 425 64
2020-09-18 05:46:23 GMT 48.673157 21.046480 37,000 132 425 64
2020-09-18 05:46:18 GMT 48.678955 21.037058 37,000 132 425 64
2020-09-18 05:46:15 GMT 48.684998 21.027269 36,975 132 427 64
2020-09-18 05:46:11 GMT 48.690399 21.018536 36,975 133 428 0
2020-09-18 05:46:08 GMT 48.694290 21.012197 36,975 133 428 0
2020-09-18 05:46:04 GMT 48.698822 21.004803 37,000 132 428 0
2020-09-18 05:46:00 GMT 48.703400 20.997408 36,975 133 429 0
2020-09-18 05:45:57 GMT 48.708958 20.988367 37,000 132 429 0
2020-09-18 05:45:54 GMT 48.711685 20.983957 36,975 132 430 0
2020-09-18 05:45:51 GMT 48.716824 20.975574 37,000 132 430 -64
2020-09-18 05:45:48 GMT 48.720062 20.970295 37,000 132 430 -64
2020-09-18 05:45:44 GMT 48.725948 20.960758 37,000 132 430 -64
2020-09-18 05:45:41 GMT 48.734608 20.946590 37,000 132 431 -64
2020-09-18 05:45:37 GMT 48.734608 20.946590 37,000 132 431 -64
2020-09-18 05:45:34 GMT 48.740005 20.937700 37,000 132 430 0
2020-09-18 05:45:31 GMT 48.746292 20.927437 37,000 132 430 0
2020-09-18 05:45:26 GMT 48.749725 20.921772 37,000 132 430 0
2020-09-18 05:45:23 GMT 48.754391 20.914209 37,000 132 430 -64
2020-09-18 05:45:19 GMT 48.758999 20.906549 37,000 132 430 -64
2020-09-18 05:45:16 GMT 48.764633 20.897369 37,000 132 430 -64
2020-09-18 05:45:13 GMT 48.767426 20.892744 37,000 132 429 0
2020-09-18 05:45:09 GMT 48.773106 20.883421 37,000 132 429 -64
2020-09-18 05:45:05 GMT 48.777714 20.875830 37,000 132 429 -64
2020-09-18 05:45:02 GMT 48.782318 20.868319 37,000 132 429 0
2020-09-18 05:44:59 GMT 48.786301 20.861769 37,000 132 429 0
2020-09-18 05:44:55 GMT 48.792236 20.851978 37,000 132 429 0
2020-09-18 05:44:52 GMT 48.798294 20.842051 37,000 132 428 64
2020-09-18 05:44:49 GMT 48.799782 20.839619 37,000 132 428 64
2020-09-18 05:44:45 GMT 48.804623 20.831669 37,000 132 428 -64
2020-09-18 05:44:42 GMT 48.810581 20.821911 37,000 132 428 64
2020-09-18 05:44:37 GMT 48.816422 20.812262 37,000 132 428 0
2020-09-18 05:44:33 GMT 48.827385 20.794373 37,000 132 428 -64
2020-09-18 05:44:28 GMT 48.827385 20.794373 37,025 132 428 -64
2020-09-18 05:44:25 GMT 48.831760 20.787216 37,000 132 428 0
2020-09-18 05:44:22 GMT 48.835579 20.780930 37,000 132 428 64
2020-09-18 05:44:18 GMT 48.844620 20.765991 37,000 132 428 64
2020-09-18 05:44:12 GMT 48.849125 20.758595 37,000 132 428 0
2020-09-18 05:44:08 GMT 48.855129 20.748693 37,000 132 428 0
2020-09-18 05:44:04 GMT 48.859322 20.741755 37,000 132 428 64
2020-09-18 05:44:01 GMT 48.864166 20.733807 37,000 132 428 0
2020-09-18 05:43:56 GMT 48.871719 20.721272 37,000 132 428 -64
2020-09-18 05:43:53 GMT 48.874729 20.716240 37,000 132 428 -64
2020-09-18 05:43:50 GMT 48.878677 20.709721 37,000 132 428 -64
2020-09-18 05:43:47 GMT 48.882458 20.703445 37,025 132 428 -64
2020-09-18 05:43:44 GMT 48.886414 20.696835 37,000 132 428 64
2020-09-18 05:43:40 GMT 48.891441 20.688484 37,025 132 428 0
2020-09-18 05:43:37 GMT 48.899635 20.674969 37,000 132 428 0
2020-09-18 05:43:34 GMT 48.899635 20.674969 37,000 132 428 64
2020-09-18 05:43:31 GMT 48.905453 20.665283 37,000 132 428 64
2020-09-18 05:43:25 GMT 48.912296 20.653864 37,000 132 428 64
2020-09-18 05:43:22 GMT 48.916534 20.646761 37,000 132 428 64
2020-09-18 05:43:19 GMT 48.920212 20.640709 37,000 132 428 0
2020-09-18 05:43:16 GMT 48.923630 20.635071 37,000 132 428 0
2020-09-18 05:43:13 GMT 48.927063 20.629366 37,000 132 428 64
2020-09-18 05:43:09 GMT 48.932686 20.619965 37,000 132 428 64
2020-09-18 05:43:05 GMT 48.938782 20.609928 37,000 132 428 0
2020-09-18 05:43:02 GMT 48.943718 20.601749 37,000 132 429 0
2020-09-18 05:42:56 GMT 48.950455 20.590563 37,000 132 428 64
2020-09-18 05:42:53 GMT 48.954437 20.583942 37,000 132 428 64
2020-09-18 05:42:50 GMT 48.958710 20.576960 37,000 132 428 0
2020-09-18 05:42:46 GMT 48.964809 20.566769 37,000 132 428 0
2020-09-18 05:42:43 GMT 48.968113 20.561346 37,000 132 428 0
2020-09-18 05:42:39 GMT 48.974854 20.550207 37,000 132 429 -64
2020-09-18 05:42:36 GMT 48.978058 20.544855 37,000 132 429 -64
2020-09-18 05:42:33 GMT 48.981262 20.539503 37,000 132 429 0
2020-09-18 05:42:29 GMT 48.986687 20.530483 37,000 132 429 -64
2020-09-18 05:42:24 GMT 48.993393 20.519293 37,000 132 429 -64
2020-09-18 05:42:21 GMT 48.999023 20.509956 37,000 132 429 0
2020-09-18 05:42:15 GMT 49.005821 20.498680 37,000 132 429 0
2020-09-18 05:42:12 GMT 49.009266 20.492899 37,000 132 429 0
2020-09-18 05:42:09 GMT 49.013489 20.485910 37,000 132 429 0
2020-09-18 05:42:05 GMT 49.019485 20.475910 37,000 132 429 0
2020-09-18 05:42:02 GMT 49.023975 20.468397 37,000 132 429 0
2020-09-18 05:41:59 GMT 49.027039 20.463305 37,000 132 429 0
2020-09-18 05:41:55 GMT 49.032669 20.453938 37,000 132 429 0
2020-09-18 05:41:52 GMT 49.036919 20.446930 37,000 132 429 0
2020-09-18 05:41:49 GMT 49.040497 20.440908 37,000 132 429 0
2020-09-18 05:41:45 GMT 49.046322 20.431246 37,000 132 429 -64
2020-09-18 05:41:42 GMT 49.050110 20.424923 37,000 132 429 0
2020-09-18 05:41:38 GMT 49.054916 20.416822 37,000 132 429 -64
2020-09-18 05:41:33 GMT 49.061497 20.405804 37,000 132 429 0
2020-09-18 05:41:30 GMT 49.066818 20.396893 37,000 132 429 0
2020-09-18 05:41:27 GMT 49.068878 20.393442 37,000 132 429 -64
2020-09-18 05:41:23 GMT 49.074951 20.383253 37,000 132 429 0
2020-09-18 05:41:20 GMT 49.078720 20.376892 37,000 132 429 0
2020-09-18 05:41:17 GMT 49.082794 20.370131 37,000 132 429 -64
2020-09-18 05:41:12 GMT 49.090485 20.357174 37,000 132 429 -64
2020-09-18 05:41:09 GMT 49.093826 20.351540 37,000 132 429 -64
2020-09-18 05:41:05 GMT 49.100227 20.340754 37,000 132 429 0
2020-09-18 05:41:02 GMT 49.107071 20.329262 37,000 132 429 0
2020-09-18 05:40:59 GMT 49.107071 20.329262 37,000 132 429 0
2020-09-18 05:40:56 GMT 49.110260 20.323933 37,000 132 429 0
2020-09-18 05:40:53 GMT 49.115685 20.314804 37,000 132 428 0
2020-09-18 05:40:49 GMT 49.120377 20.306889 37,000 132 428 0
2020-09-18 05:40:46 GMT 49.123829 20.301144 37,000 132 428 0
2020-09-18 05:40:43 GMT 49.129230 20.292036 37,000 132 428 -64
2020-09-18 05:40:40 GMT 49.131912 20.287594 37,000 132 428 0
2020-09-18 05:40:36 GMT 49.136726 20.279461 37,000 132 428 0
2020-09-18 05:40:31 GMT 49.145149 20.265366 37,000 132 428 0
2020-09-18 05:40:27 GMT 49.150543 20.256325 37,000 132 428 0
2020-09-18 05:40:23 GMT 49.154251 20.249987 37,000 132 429 0
2020-09-18 05:40:19 GMT 49.160049 20.240286 37,000 132 429 0
2020-09-18 05:40:16 GMT 49.163586 20.234287 37,000 132 429 64
2020-09-18 05:40:13 GMT 49.167892 20.227028 37,000 132 429 64
2020-09-18 05:40:09 GMT 49.172791 20.218859 37,000 132 429 0
2020-09-18 05:40:06 GMT 49.183323 20.201038 37,000 132 427 0
2020-09-18 05:40:02 GMT 49.183323 20.201038 37,000 132 429 0
2020-09-18 05:39:58 GMT 49.188259 20.192799 37,000 132 427 0
2020-09-18 05:39:55 GMT 49.191650 20.187025 37,000 132 427 0
2020-09-18 05:39:51 GMT 49.197144 20.177799 37,000 132 427 0
2020-09-18 05:39:48 GMT 49.200485 20.172096 37,000 132 427 0
2020-09-18 05:39:45 GMT 49.205341 20.163887 37,000 132 427 0
2020-09-18 05:39:41 GMT 49.210648 20.155052 37,000 132 427 0
2020-09-18 05:39:38 GMT 49.214355 20.148714 37,000 132 427 0
2020-09-18 05:39:35 GMT 49.219299 20.140404 37,000 132 427 0
2020-09-18 05:39:31 GMT 49.223969 20.132517 37,000 132 427 0
2020-09-18 05:39:28 GMT 49.227409 20.126736 37,000 132 427 0
2020-09-18 05:39:25 GMT 49.231552 20.119724 37,000 132 427 0
2020-09-18 05:39:21 GMT 49.237381 20.109909 37,000 132 427 64
2020-09-18 05:39:17 GMT 49.241867 20.102304 37,000 132 427 0
2020-09-18 05:39:14 GMT 49.245705 20.095800 37,000 132 427 0
2020-09-18 05:39:10 GMT 49.251801 20.085539 37,000 132 427 0
2020-09-18 05:39:07 GMT 49.255711 20.078960 37,000 132 427 0
2020-09-18 05:39:04 GMT 49.258942 20.073500 37,000 132 427 0
2020-09-18 05:39:00 GMT 49.265076 20.063148 37,000 132 426 0
2020-09-18 05:38:57 GMT 49.269119 20.056337 37,000 132 426 0
2020-09-18 05:38:54 GMT 49.272377 20.050772 37,000 132 426 0
2020-09-18 05:38:50 GMT 49.278244 20.040941 37,000 132 426 0
2020-09-18 05:38:46 GMT 49.283249 20.032513 37,000 132 426 0
2020-09-18 05:38:40 GMT 49.291233 20.018969 37,000 132 426 0
2020-09-18 05:38:37 GMT 49.302017 20.000751 37,000 131 426 0
2020-09-18 05:38:33 GMT 49.302017 20.000751 37,000 132 426 0
2020-09-18 05:38:28 GMT 49.306366 19.993357 37,000 131 426 0
2020-09-18 05:38:25 GMT 49.310257 19.986736 37,000 131 426 0
2020-09-18 05:38:22 GMT 49.315674 19.977554 37,000 131 426 0
2020-09-18 05:38:19 GMT 49.318558 19.972639 37,000 131 426 0
2020-09-18 05:38:16 GMT 49.322468 19.965988 37,000 131 425 0
2020-09-18 05:38:13 GMT 49.326233 19.959553 37,000 131 425 0
2020-09-18 05:38:09 GMT 49.332138 19.949482 37,000 131 424 0
2020-09-18 05:38:06 GMT 49.337551 19.940258 37,000 131 425 0
2020-09-18 05:38:03 GMT 49.344860 19.927753 37,000 131 425 0
2020-09-18 05:38:00 GMT 49.344860 19.927753 37,000 131 425 0
2020-09-18 05:37:57 GMT 49.347980 19.922478 37,000 131 424 0
2020-09-18 05:37:54 GMT 49.352417 19.914831 37,000 131 424 0
2020-09-18 05:37:49 GMT 49.359154 19.903252 37,000 131 424 0
2020-09-18 05:37:46 GMT 49.363712 19.895445 37,000 131 424 0
2020-09-18 05:37:43 GMT 49.365761 19.891975 37,000 131 424 0
2020-09-18 05:37:38 GMT 49.373863 19.878098 37,000 131 424 64
2020-09-18 05:37:35 GMT 49.376038 19.874409 37,000 131 424 0
2020-09-18 05:37:32 GMT 49.379791 19.867929 37,000 131 424 0
2020-09-18 05:37:29 GMT 49.388618 19.852873 37,000 131 424 0
2020-09-18 05:37:26 GMT 49.388618 19.852873 37,000 131 424 0
2020-09-18 05:37:20 GMT 49.395554 19.841091 37,000 131 424 0
2020-09-18 05:37:17 GMT 49.399979 19.833574 37,000 131 424 0
2020-09-18 05:37:14 GMT 49.403561 19.827431 37,000 131 424 64
2020-09-18 05:37:10 GMT 49.410370 19.815815 37,000 131 424 64
2020-09-18 05:37:06 GMT 49.415573 19.806904 37,000 131 425 0
2020-09-18 05:37:03 GMT 49.419529 19.800110 37,000 131 425 0
2020-09-18 05:36:58 GMT 49.424835 19.791025 37,000 131 425 0
2020-09-18 05:36:55 GMT 49.430328 19.781679 37,000 131 425 0
2020-09-18 05:36:52 GMT 49.432892 19.777269 37,000 131 425 0
2020-09-18 05:36:48 GMT 49.438381 19.767893 37,000 131 425 0
2020-09-18 05:36:45 GMT 49.442432 19.760916 37,000 131 425 0
2020-09-18 05:36:42 GMT 49.446259 19.754431 37,000 131 425 0
2020-09-18 05:36:39 GMT 49.450424 19.747202 37,000 131 425 -64
2020-09-18 05:36:36 GMT 49.457050 19.735825 37,000 131 425 0
2020-09-18 05:36:33 GMT 49.462776 19.726101 37,000 131 425 0
2020-09-18 05:36:30 GMT 49.462776 19.726101 37,000 131 425 0
2020-09-18 05:36:27 GMT 49.465485 19.721472 37,000 131 425 0
2020-09-18 05:36:24 GMT 49.475021 19.705093 37,000 131 425 0
2020-09-18 05:36:21 GMT 49.475021 19.705093 37,000 131 425 0
2020-09-18 05:36:17 GMT 49.478790 19.698486 37,000 131 425 0
2020-09-18 05:36:14 GMT 49.483398 19.690544 37,000 131 425 0
2020-09-18 05:36:09 GMT 49.489288 19.680489 37,000 131 425 0
2020-09-18 05:36:06 GMT 49.497070 19.667046 37,000 131 425 0
2020-09-18 05:36:03 GMT 49.497070 19.667046 37,000 131 425 0
2020-09-18 05:36:00 GMT 49.500439 19.661222 37,000 131 425 0
2020-09-18 05:35:57 GMT 49.505173 19.653095 37,000 131 425 0
2020-09-18 05:35:54 GMT 49.508743 19.646952 37,000 131 425 0
2020-09-18 05:35:51 GMT 49.512913 19.639694 37,000 131 425 0
2020-09-18 05:35:47 GMT 49.523155 19.622026 37,000 131 426 0
2020-09-18 05:35:43 GMT 49.523155 19.622026 37,000 131 426 0
2020-09-18 05:35:39 GMT 49.529442 19.611115 37,000 131 426 0
2020-09-18 05:35:36 GMT 49.533676 19.603765 37,000 131 426 0
2020-09-18 05:35:33 GMT 49.535706 19.600260 37,000 131 426 0
2020-09-18 05:35:30 GMT 49.539368 19.593899 37,000 131 426 0
2020-09-18 05:35:26 GMT 49.545319 19.583635 37,000 131 426 0
2020-09-18 05:35:23 GMT 49.550060 19.575411 37,000 131 426 0
2020-09-18 05:35:20 GMT 49.553413 19.569546 37,000 131 426 0
2020-09-18 05:35:16 GMT 49.561981 19.554699 37,000 131 426 0
2020-09-18 05:35:13 GMT 49.561981 19.554699 37,000 131 424 0
2020-09-18 05:35:10 GMT 49.566494 19.546829 37,000 131 425 0
2020-09-18 05:35:07 GMT 49.570770 19.539474 37,000 131 425 0
2020-09-18 05:35:04 GMT 49.574875 19.532429 37,000 131 425 0
2020-09-18 05:35:00 GMT 49.579205 19.524933 37,000 131 424 0
2020-09-18 05:34:55 GMT 49.585583 19.513947 37,000 131 425 0
2020-09-18 05:34:52 GMT 49.589859 19.506516 37,000 131 425 0
2020-09-18 05:34:49 GMT 49.592751 19.501549 37,000 131 425 0
2020-09-18 05:34:46 GMT 49.598328 19.491842 37,000 131 425 0
2020-09-18 05:34:43 GMT 49.602200 19.485144 37,000 131 425 0
2020-09-18 05:34:40 GMT 49.606384 19.477892 37,000 131 425 0
2020-09-18 05:34:35 GMT 49.611603 19.468813 37,000 131 425 0
2020-09-18 05:34:32 GMT 49.615402 19.462280 37,000 131 425 0
2020-09-18 05:34:29 GMT 49.619476 19.455269 37,000 131 425 0
2020-09-18 05:34:25 GMT 49.625381 19.445005 37,000 131 425 0
2020-09-18 05:34:22 GMT 49.630005 19.436983 37,000 131 424 0
2020-09-18 05:34:19 GMT 49.632706 19.432285 37,000 131 425 0
2020-09-18 05:34:15 GMT 49.638416 19.422419 37,000 131 425 0
2020-09-18 05:34:12 GMT 49.642181 19.415951 37,000 131 425 0
2020-09-18 05:34:09 GMT 49.646027 19.409300 37,000 131 425 0
2020-09-18 05:34:06 GMT 49.650055 19.402288 37,000 131 425 0
2020-09-18 05:34:03 GMT 49.653549 19.396288 37,000 131 425 0
2020-09-18 05:34:00 GMT 49.658062 19.388418 37,000 131 425 0
2020-09-18 05:33:57 GMT 49.662437 19.380774 37,000 131 425 0
2020-09-18 05:33:54 GMT 49.665188 19.376022 37,000 131 425 -64
2020-09-18 05:33:51 GMT 49.669373 19.368752 37,000 131 425 0
2020-09-18 05:33:48 GMT 49.674179 19.360439 37,000 131 425 0
2020-09-18 05:33:44 GMT 49.679169 19.351694 37,000 131 425 0
2020-09-18 05:33:41 GMT 49.682594 19.345736 37,000 131 425 0
2020-09-18 05:33:38 GMT 49.686321 19.339277 37,000 131 425 0
2020-09-18 05:33:34 GMT 49.691486 19.330221 37,000 131 425 0
2020-09-18 05:33:31 GMT 49.695168 19.323837 37,000 131 425 0
2020-09-18 05:33:28 GMT 49.698936 19.317305 37,000 131 425 0
2020-09-18 05:33:24 GMT 49.704300 19.307966 37,000 131 425 0
2020-09-18 05:33:21 GMT 49.709061 19.299654 37,000 131 425 0
2020-09-18 05:33:18 GMT 49.712357 19.293871 37,000 131 425 0
2020-09-18 05:33:14 GMT 49.720642 19.279488 37,000 131 425 0
2020-09-18 05:33:08 GMT 49.725704 19.270613 37,000 131 425 0
2020-09-18 05:33:05 GMT 49.730034 19.263117 37,000 131 425 0
2020-09-18 05:33:02 GMT 49.739090 19.247324 37,000 131 425 0
2020-09-18 05:32:58 GMT 49.739090 19.247324 37,000 131 425 0
2020-09-18 05:32:54 GMT 49.743988 19.238724 37,000 131 425 0
2020-09-18 05:32:51 GMT 49.748142 19.231419 37,000 131 425 0
2020-09-18 05:32:48 GMT 49.751312 19.225929 37,000 131 425 0
2020-09-18 05:32:45 GMT 49.755360 19.218800 37,000 131 425 0
2020-09-18 05:32:42 GMT 49.758617 19.213083 37,000 131 425 0
2020-09-18 05:32:39 GMT 49.762665 19.205980 37,000 131 425 0
2020-09-18 05:32:36 GMT 49.766418 19.199331 37,000 131 425 0
2020-09-18 05:32:32 GMT 49.773056 19.187695 37,000 131 425 0
2020-09-18 05:32:29 GMT 49.776493 19.181608 37,000 131 425 0
2020-09-18 05:32:24 GMT 49.782265 19.171515 37,000 131 425 0
2020-09-18 05:32:21 GMT 49.787155 19.162903 37,000 131 427 -64
2020-09-18 05:32:18 GMT 49.790550 19.156963 37,000 131 425 0
2020-09-18 05:32:14 GMT 49.795441 19.148302 37,000 131 425 0
2020-09-18 05:32:11 GMT 49.799286 19.141508 37,000 131 425 0
2020-09-18 05:32:08 GMT 49.804779 19.131895 37,000 131 426 0
2020-09-18 05:32:05 GMT 49.808475 19.125416 37,000 131 426 0
2020-09-18 05:32:02 GMT 49.811096 19.120764 37,000 131 426 0
2020-09-18 05:31:59 GMT 49.815876 19.112350 37,000 131 426 0
2020-09-18 05:31:56 GMT 49.818924 19.106958 37,000 131 426 0
2020-09-18 05:31:53 GMT 49.823227 19.099369 37,000 131 426 0
2020-09-18 05:31:50 GMT 49.826981 19.092720 37,000 131 426 0
2020-09-18 05:31:46 GMT 49.832291 19.083397 37,000 131 426 0
2020-09-18 05:31:42 GMT 49.841015 19.067961 37,000 131 426 0
2020-09-18 05:31:39 GMT 49.844696 19.061497 37,000 131 426 0
2020-09-18 05:31:36 GMT 49.844696 19.061497 37,000 131 426 -64
2020-09-18 05:31:33 GMT 49.849953 19.052223 37,000 131 427 -64
2020-09-18 05:31:30 GMT 49.852432 19.047909 37,000 131 427 0
2020-09-18 05:31:27 GMT 49.856468 19.040791 37,000 131 427 0
2020-09-18 05:31:24 GMT 49.861450 19.032032 37,000 131 427 0
2020-09-18 05:31:21 GMT 49.865662 19.024563 37,000 131 427 0
2020-09-18 05:31:18 GMT 49.869598 19.017632 37,000 131 427 0
2020-09-18 05:31:14 GMT 49.874405 19.009167 37,000 131 427 0
2020-09-18 05:31:11 GMT 49.876999 19.004566 37,000 131 427 0
2020-09-18 05:31:08 GMT 49.882233 18.995361 37,000 131 427 0
2020-09-18 05:31:05 GMT 49.884865 18.990759 37,000 131 427 0
2020-09-18 05:31:01 GMT 49.893906 18.974834 37,000 131 426 0
2020-09-18 05:30:58 GMT 49.893906 18.974834 37,000 131 426 0
2020-09-18 05:30:55 GMT 49.897945 18.967672 37,000 131 426 0
2020-09-18 05:30:51 GMT 49.903564 18.957705 37,000 131 427 0
2020-09-18 05:30:48 GMT 49.907352 18.950972 37,000 131 427 0
2020-09-18 05:30:45 GMT 49.910656 18.945107 37,000 131 426 0
2020-09-18 05:30:41 GMT 49.916336 18.935085 37,000 131 427 0
2020-09-18 05:30:38 GMT 49.920155 18.928255 37,000 131 426 0
2020-09-18 05:30:35 GMT 49.925491 18.918892 37,000 131 426 0
2020-09-18 05:30:32 GMT 49.928112 18.914227 37,000 131 426 0
2020-09-18 05:30:29 GMT 49.933090 18.905375 37,000 131 426 0
2020-09-18 05:30:26 GMT 49.936249 18.899809 37,000 131 426 0
2020-09-18 05:30:21 GMT 49.942429 18.888895 37,000 131 426 0
2020-09-18 05:30:18 GMT 49.946365 18.881884 37,000 131 426 0
2020-09-18 05:30:15 GMT 49.950039 18.875328 37,000 131 427 0
2020-09-18 05:30:12 GMT 49.953857 18.868572 37,000 131 427 0
2020-09-18 05:30:09 GMT 49.958496 18.860346 37,000 131 427 0
2020-09-18 05:30:06 GMT 49.961700 18.854708 37,000 131 427 0
2020-09-18 05:30:02 GMT 49.966873 18.845455 37,000 131 426 0
2020-09-18 05:29:59 GMT 49.971127 18.837915 37,000 131 426 0
2020-09-18 05:29:56 GMT 49.974792 18.831362 37,000 131 426 0
2020-09-18 05:29:53 GMT 49.978203 18.825296 37,000 131 426 0
2020-09-18 05:29:50 GMT 49.983139 18.816462 37,000 131 426 0
2020-09-18 05:29:47 GMT 49.985916 18.811558 37,000 131 426 0
2020-09-18 05:29:44 GMT 49.990631 18.803175 37,000 131 426 0
2020-09-18 05:29:41 GMT 49.994751 18.795799 37,000 131 426 0
2020-09-18 05:29:38 GMT 49.997429 18.791075 37,000 131 426 0
2020-09-18 05:29:35 GMT 50.001339 18.784098 37,000 130 426 0
2020-09-18 05:29:32 GMT 50.005600 18.776503 37,000 131 426 0
2020-09-18 05:29:29 GMT 50.009300 18.769918 37,000 131 426 0
2020-09-18 05:29:26 GMT 50.013630 18.762199 37,000 130 426 0
2020-09-18 05:29:23 GMT 50.017818 18.754702 37,000 131 426 0
2020-09-18 05:29:20 GMT 50.021172 18.748690 37,000 131 426 0
2020-09-18 05:29:17 GMT 50.025238 18.741447 37,000 131 426 0
2020-09-18 05:29:14 GMT 50.027939 18.736605 37,000 131 426 0
2020-09-18 05:29:11 GMT 50.032425 18.728580 37,000 131 426 0
2020-09-18 05:29:08 GMT 50.037045 18.720331 37,000 131 426 0
2020-09-18 05:29:05 GMT 50.041470 18.712463 37,000 130 426 0
2020-09-18 05:29:01 GMT 50.046112 18.704224 37,000 131 426 0
2020-09-18 05:28:58 GMT 50.049271 18.698586 37,000 131 426 0
2020-09-18 05:28:55 GMT 50.053299 18.691359 37,000 131 426 0
2020-09-18 05:28:52 GMT 50.061493 18.676758 37,000 131 426 0
2020-09-18 05:28:49 GMT 50.061493 18.676758 37,000 131 426 0
2020-09-18 05:28:46 GMT 50.064835 18.670759 37,000 131 427 0
2020-09-18 05:28:43 GMT 50.069046 18.663242 37,000 131 426 0
2020-09-18 05:28:40 GMT 50.073124 18.656048 37,000 131 426 0
2020-09-18 05:28:37 GMT 50.080666 18.642536 37,000 131 426 0
2020-09-18 05:28:34 GMT 50.080666 18.642536 37,000 131 426 0
2020-09-18 05:28:31 GMT 50.085159 18.634476 37,000 131 426 0
2020-09-18 05:28:28 GMT 50.088905 18.627838 37,000 131 426 0
2020-09-18 05:28:24 GMT 50.094116 18.618412 37,000 131 426 0
2020-09-18 05:28:21 GMT 50.098114 18.611345 37,000 131 426 0
2020-09-18 05:28:18 GMT 50.100998 18.606142 37,000 130 426 0
2020-09-18 05:28:15 GMT 50.106216 18.596819 37,000 130 426 0
2020-09-18 05:28:12 GMT 50.109009 18.591759 37,000 130 426 0
2020-09-18 05:28:09 GMT 50.112228 18.585972 37,000 130 426 0
2020-09-18 05:28:06 GMT 50.117489 18.576469 37,000 130 426 0
2020-09-18 05:28:03 GMT 50.121304 18.569641 37,000 130 426 0
2020-09-18 05:27:59 GMT 50.125305 18.562412 37,000 130 426 0
2020-09-18 05:27:56 GMT 50.129425 18.555040 37,000 130 426 0
2020-09-18 05:27:52 GMT 50.135330 18.544416 37,000 130 426 0
2020-09-18 05:27:49 GMT 50.138016 18.539652 37,000 130 426 0
2020-09-18 05:27:46 GMT 50.142517 18.531479 37,000 130 426 0
2020-09-18 05:27:43 GMT 50.145676 18.525841 37,000 130 426 0
2020-09-18 05:27:40 GMT 50.151146 18.515970 37,000 130 426 0
2020-09-18 05:27:36 GMT 50.155476 18.508177 37,000 130 426 0
2020-09-18 05:27:33 GMT 50.160233 18.499676 37,000 130 426 0
2020-09-18 05:27:30 GMT 50.162086 18.496300 37,000 130 426 0
2020-09-18 05:27:27 GMT 50.167145 18.487244 37,000 130 426 0
2020-09-18 05:27:24 GMT 50.170650 18.481009 37,000 130 426 0
2020-09-18 05:27:21 GMT 50.175537 18.472176 37,000 130 426 0
2020-09-18 05:27:18 GMT 50.178146 18.467424 37,000 130 426 0
2020-09-18 05:27:15 GMT 50.182022 18.460501 37,000 130 426 0
2020-09-18 05:27:12 GMT 50.190388 18.445377 37,000 130 426 0
2020-09-18 05:27:09 GMT 50.190388 18.445377 37,000 130 426 0
2020-09-18 05:27:06 GMT 50.194996 18.437138 37,000 130 426 0
2020-09-18 05:27:03 GMT 50.197495 18.432602 37,000 130 426 0
2020-09-18 05:27:00 GMT 50.206650 18.416048 37,000 130 426 0
2020-09-18 05:26:57 GMT 50.206650 18.416048 37,000 130 426 0
2020-09-18 05:26:54 GMT 50.209534 18.410845 37,000 130 426 0
2020-09-18 05:26:51 GMT 50.214317 18.402174 37,000 130 426 0
2020-09-18 05:26:47 GMT 50.219158 18.393414 37,000 130 426 0
2020-09-18 05:26:44 GMT 50.221619 18.388872 37,000 130 426 0
2020-09-18 05:26:41 GMT 50.226234 18.380571 37,000 130 426 0
2020-09-18 05:26:38 GMT 50.231369 18.371309 37,000 130 426 0
2020-09-18 05:26:34 GMT 50.235809 18.363285 37,000 130 426 0
2020-09-18 05:26:31 GMT 50.239380 18.356709 37,000 130 426 0
2020-09-18 05:26:26 GMT 50.246437 18.343975 37,000 130 426 0
2020-09-18 05:26:23 GMT 50.248577 18.340117 37,000 130 426 0
2020-09-18 05:26:20 GMT 50.253185 18.331728 37,000 130 426 0
2020-09-18 05:26:16 GMT 50.258450 18.322226 37,000 130 426 0
2020-09-18 05:26:13 GMT 50.262173 18.315544 37,000 130 426 0
2020-09-18 05:26:10 GMT 50.265663 18.309160 37,000 130 426 0
2020-09-18 05:26:06 GMT 50.271576 18.298397 37,000 130 426 0
2020-09-18 05:26:03 GMT 50.275810 18.290752 37,000 130 425 0
2020-09-18 05:25:59 GMT 50.280514 18.282215 37,000 130 426 0
2020-09-18 05:25:56 GMT 50.284698 18.274599 37,000 130 425 0
2020-09-18 05:25:53 GMT 50.287449 18.269596 37,000 130 425 0
2020-09-18 05:25:50 GMT 50.291687 18.261875 37,000 130 425 0
2020-09-18 05:25:47 GMT 50.294758 18.256308 37,000 130 425 0
2020-09-18 05:25:44 GMT 50.299667 18.247351 37,000 130 425 0
2020-09-18 05:25:41 GMT 50.302208 18.242723 37,000 130 425 0
2020-09-18 05:25:38 GMT 50.306908 18.234186 37,000 130 425 0
2020-09-18 05:25:35 GMT 50.310974 18.226751 37,000 130 425 0
2020-09-18 05:25:32 GMT 50.313766 18.221693 37,000 130 425 0
2020-09-18 05:25:28 GMT 50.319340 18.211546 37,000 130 425 0
2020-09-18 05:25:25 GMT 50.324158 18.202827 37,000 130 425 0
2020-09-18 05:25:22 GMT 50.327362 18.196974 37,000 130 425 0
2020-09-18 05:25:19 GMT 50.331207 18.189890 37,000 130 424 0
2020-09-18 05:25:16 GMT 50.335678 18.181705 37,000 130 424 0
2020-09-18 05:25:12 GMT 50.339821 18.174208 37,000 130 424 0
2020-09-18 05:25:09 GMT 50.344162 18.166256 37,000 130 424 0
2020-09-18 05:25:05 GMT 50.350433 18.154835 37,000 130 424 0
2020-09-18 05:25:02 GMT 50.353043 18.150082 37,000 130 424 0
2020-09-18 05:24:59 GMT 50.356750 18.143343 37,000 130 424 0
2020-09-18 05:24:56 GMT 50.360092 18.137199 37,000 130 424 0
2020-09-18 05:24:53 GMT 50.364120 18.129827 37,000 130 424 0
2020-09-18 05:24:50 GMT 50.368637 18.121576 37,000 130 424 0
2020-09-18 05:24:47 GMT 50.371990 18.115490 37,000 130 424 0
2020-09-18 05:24:44 GMT 50.376083 18.107918 37,000 130 424 0
2020-09-18 05:24:41 GMT 50.378784 18.102945 37,000 130 424 0
2020-09-18 05:24:38 GMT 50.383160 18.095001 37,000 130 425 0
2020-09-18 05:24:35 GMT 50.388657 18.084942 37,000 130 424 0
2020-09-18 05:24:32 GMT 50.392471 18.078003 37,000 130 425 0
2020-09-18 05:24:29 GMT 50.395031 18.073326 37,000 130 426 0
2020-09-18 05:24:26 GMT 50.398819 18.066366 37,000 130 426 0
2020-09-18 05:24:23 GMT 50.403599 18.057589 37,000 130 426 0
2020-09-18 05:24:20 GMT 50.406670 18.051949 37,000 130 426 0
2020-09-18 05:24:17 GMT 50.411186 18.043709 37,000 130 426 0
2020-09-18 05:24:14 GMT 50.414211 18.038216 37,000 130 426 0
2020-09-18 05:24:11 GMT 50.417862 18.031456 37,000 130 426 0
2020-09-18 05:24:08 GMT 50.423290 18.021511 37,000 130 426 0
2020-09-18 05:24:05 GMT 50.426239 18.016132 37,000 130 426 0
2020-09-18 05:24:02 GMT 50.429062 18.010897 37,000 130 426 0
2020-09-18 05:23:59 GMT 50.433975 18.001966 37,000 130 427 0
2020-09-18 05:23:56 GMT 50.436859 17.996691 37,000 130 427 0
2020-09-18 05:23:53 GMT 50.440475 17.990040 37,000 130 427 0
2020-09-18 05:23:50 GMT 50.448475 17.975414 37,000 130 427 0
2020-09-18 05:23:47 GMT 50.448475 17.975414 37,000 130 427 0
2020-09-18 05:23:44 GMT 50.452148 17.968645 37,000 130 427 0
2020-09-18 05:23:41 GMT 50.461090 17.952181 37,000 130 427 0
2020-09-18 05:23:38 GMT 50.461090 17.952181 37,000 130 427 0
2020-09-18 05:23:35 GMT 50.463684 17.947468 37,000 130 427 0
2020-09-18 05:23:32 GMT 50.469234 17.937332 37,000 130 427 0
2020-09-18 05:23:29 GMT 50.471287 17.933474 37,000 130 428 0
2020-09-18 05:23:26 GMT 50.475197 17.926348 37,000 130 428 0
2020-09-18 05:23:23 GMT 50.480225 17.917068 37,000 130 428 0
2020-09-18 05:23:20 GMT 50.483574 17.910908 37,000 130 428 0
2020-09-18 05:23:16 GMT 50.488369 17.902147 37,000 130 428 0
2020-09-18 05:23:13 GMT 50.495956 17.888119 37,000 130 428 0
2020-09-18 05:23:07 GMT 50.499264 17.881956 37,000 130 428 0
2020-09-18 05:23:04 GMT 50.505035 17.871342 37,000 130 428 0
2020-09-18 05:23:00 GMT 50.509830 17.862432 37,000 130 429 0
2020-09-18 05:22:57 GMT 50.512207 17.858061 37,000 130 430 0
2020-09-18 05:22:54 GMT 50.517014 17.849241 37,000 130 429 0
2020-09-18 05:22:51 GMT 50.521515 17.840832 37,000 130 429 0
2020-09-18 05:22:48 GMT 50.524750 17.834858 37,000 130 429 0
2020-09-18 05:22:45 GMT 50.532211 17.821053 37,000 130 429 0
2020-09-18 05:22:42 GMT 50.532211 17.821053 37,000 130 429 0
2020-09-18 05:22:39 GMT 50.536835 17.812452 37,000 130 429 0
2020-09-18 05:22:35 GMT 50.541092 17.804646 37,000 130 429 0
2020-09-18 05:22:32 GMT 50.544884 17.797556 37,000 130 429 0
2020-09-18 05:22:28 GMT 50.554428 17.779886 37,000 130 429 0
2020-09-18 05:22:24 GMT 50.554428 17.779886 37,000 130 429 0
2020-09-18 05:22:21 GMT 50.558895 17.771572 37,000 130 429 0
2020-09-18 05:22:18 GMT 50.562668 17.764521 37,000 130 429 0
2020-09-18 05:22:15 GMT 50.566727 17.757088 37,000 130 429 0
2020-09-18 05:22:12 GMT 50.570721 17.749601 37,000 130 430 0
2020-09-18 05:22:09 GMT 50.574646 17.742342 37,000 130 429 0
2020-09-18 05:22:06 GMT 50.577255 17.737427 37,000 130 430 0
2020-09-18 05:22:03 GMT 50.583160 17.726513 37,000 130 430 0
2020-09-18 05:22:00 GMT 50.586136 17.721020 37,000 130 430 0
2020-09-18 05:21:54 GMT 50.593231 17.707792 37,000 130 430 0
2020-09-18 05:21:51 GMT 50.598038 17.698830 37,000 130 430 0
2020-09-18 05:21:48 GMT 50.604752 17.686356 37,000 130 430 0
2020-09-18 05:21:45 GMT 50.604752 17.686356 37,000 130 430 0
2020-09-18 05:21:42 GMT 50.609161 17.678230 37,000 130 430 0
2020-09-18 05:21:39 GMT 50.611771 17.673315 37,000 130 430 0
2020-09-18 05:21:36 GMT 50.615784 17.665792 37,000 130 430 0
2020-09-18 05:21:33 GMT 50.619553 17.658859 37,000 130 430 0
2020-09-18 05:21:30 GMT 50.625324 17.648050 37,000 130 430 0
2020-09-18 05:21:27 GMT 50.628723 17.641815 37,000 130 430 0
2020-09-18 05:21:24 GMT 50.632866 17.634096 37,000 130 430 0
2020-09-18 05:21:21 GMT 50.636810 17.626768 37,000 130 430 0
2020-09-18 05:21:18 GMT 50.640244 17.620407 37,000 130 430 0
2020-09-18 05:21:15 GMT 50.643585 17.614191 37,000 130 430 0
2020-09-18 05:21:11 GMT 50.649532 17.603142 37,000 130 430 0
2020-09-18 05:21:08 GMT 50.652786 17.597134 37,000 130 430 0
2020-09-18 05:21:05 GMT 50.660706 17.582390 37,000 130 429 0
2020-09-18 05:21:02 GMT 50.660706 17.582390 37,000 130 430 0
2020-09-18 05:20:59 GMT 50.667892 17.569017 37,000 130 430 0
2020-09-18 05:20:56 GMT 50.667892 17.569017 37,000 130 430 0
2020-09-18 05:20:50 GMT 50.676544 17.552959 37,000 130 430 0
2020-09-18 05:20:47 GMT 50.683701 17.539597 37,000 130 430 0
2020-09-18 05:20:44 GMT 50.683701 17.539597 37,000 130 430 0
2020-09-18 05:20:40 GMT 50.692314 17.523422 37,000 130 430 0
2020-09-18 05:20:37 GMT 50.692314 17.523422 37,000 130 430 0
2020-09-18 05:20:33 GMT 50.698505 17.511826 37,000 130 430 0
2020-09-18 05:20:30 GMT 50.702362 17.504560 37,000 130 430 0
2020-09-18 05:20:27 GMT 50.706482 17.496841 37,000 130 430 0
2020-09-18 05:20:24 GMT 50.710281 17.489716 37,000 130 430 0
2020-09-18 05:20:21 GMT 50.712891 17.484818 37,000 130 430 0
2020-09-18 05:20:18 GMT 50.717777 17.475662 37,000 130 430 0
2020-09-18 05:20:15 GMT 50.720123 17.471231 37,000 130 430 0
2020-09-18 05:20:12 GMT 50.723831 17.464327 37,000 130 430 0
2020-09-18 05:20:09 GMT 50.727951 17.456533 37,000 130 430 0
2020-09-18 05:20:06 GMT 50.731884 17.449188 37,000 130 430 0
2020-09-18 05:20:03 GMT 50.735275 17.442875 37,000 130 430 0
2020-09-18 05:20:00 GMT 50.739807 17.434412 37,000 130 430 0
2020-09-18 05:19:57 GMT 50.743927 17.426691 37,000 130 430 0
2020-09-18 05:19:53 GMT 50.747990 17.419052 37,000 130 430 0
2020-09-18 05:19:50 GMT 50.753063 17.409592 37,000 130 430 0
2020-09-18 05:19:47 GMT 50.756229 17.403717 37,000 130 430 0
2020-09-18 05:19:44 GMT 50.765308 17.386627 37,000 129 430 0
2020-09-18 05:19:40 GMT 50.765308 17.386627 37,000 129 430 0
2020-09-18 05:19:37 GMT 50.768753 17.380066 37,000 129 430 0
2020-09-18 05:19:34 GMT 50.773640 17.370834 37,000 129 430 0
2020-09-18 05:19:31 GMT 50.777084 17.364349 37,000 129 430 0
2020-09-18 05:19:27 GMT 50.782288 17.354612 37,000 129 430 0
2020-09-18 05:19:24 GMT 50.785091 17.349319 37,000 129 430 0
2020-09-18 05:19:21 GMT 50.788956 17.341995 37,000 129 430 0
2020-09-18 05:19:18 GMT 50.794464 17.331600 37,000 129 430 0
2020-09-18 05:19:15 GMT 50.796570 17.327665 37,000 129 430 0
2020-09-18 05:19:12 GMT 50.800415 17.320465 37,000 129 430 0
2020-09-18 05:19:09 GMT 50.805634 17.310593 37,000 129 430 0
2020-09-18 05:19:06 GMT 50.808323 17.305450 37,000 129 430 0
2020-09-18 05:19:03 GMT 50.812408 17.297750 37,000 129 430 0
2020-09-18 05:19:00 GMT 50.821171 17.281189 37,000 129 430 0
2020-09-18 05:18:57 GMT 50.821171 17.281189 37,000 129 430 0
2020-09-18 05:18:54 GMT 50.823315 17.277222 37,000 129 430 0
2020-09-18 05:18:51 GMT 50.832718 17.259369 37,000 129 430 0
2020-09-18 05:18:48 GMT 50.836533 17.252197 37,000 129 430 0
2020-09-18 05:18:45 GMT 50.838684 17.248091 37,000 129 430 0
2020-09-18 05:18:42 GMT 50.838684 17.248091 37,000 129 430 0
2020-09-18 05:18:39 GMT 50.842941 17.240072 37,000 129 430 0
2020-09-18 05:18:36 GMT 50.851410 17.223965 37,000 129 430 0
2020-09-18 05:18:33 GMT 50.851410 17.223965 37,000 129 430 0
2020-09-18 05:18:29 GMT 50.854874 17.217484 37,000 129 430 0
2020-09-18 05:18:25 GMT 50.860088 17.207565 37,000 129 430 0
2020-09-18 05:18:22 GMT 50.865051 17.198132 37,000 129 430 0
2020-09-18 05:18:18 GMT 50.869678 17.189407 37,000 129 430 0
2020-09-18 05:18:15 GMT 50.873169 17.182770 37,000 129 430 0
2020-09-18 05:18:11 GMT 50.878464 17.172670 37,000 129 430 0
2020-09-18 05:18:08 GMT 50.881760 17.166361 37,000 129 430 0
2020-09-18 05:18:05 GMT 50.885880 17.158585 37,000 129 430 0
2020-09-18 05:18:02 GMT 50.893700 17.143631 37,000 129 430 0
2020-09-18 05:17:59 GMT 50.893700 17.143631 37,000 129 430 0
2020-09-18 05:17:55 GMT 50.898449 17.134628 37,000 129 430 0
2020-09-18 05:17:52 GMT 50.903942 17.124252 37,000 129 430 0
2020-09-18 05:17:49 GMT 50.907028 17.118406 37,000 129 430 0
2020-09-18 05:17:46 GMT 50.911743 17.109499 37,000 129 430 0
2020-09-18 05:17:43 GMT 50.914078 17.105045 37,000 129 430 0
2020-09-18 05:17:40 GMT 50.917786 17.097994 37,000 129 430 0
2020-09-18 05:17:37 GMT 50.922096 17.089844 37,000 129 430 0
2020-09-18 05:17:34 GMT 50.928616 17.077408 37,000 129 430 0
2020-09-18 05:17:31 GMT 50.928616 17.077408 37,000 129 430 0
2020-09-18 05:17:28 GMT 50.933945 17.067261 37,000 129 430 0
2020-09-18 05:17:25 GMT 50.937286 17.060951 37,000 129 430 0
2020-09-18 05:17:22 GMT 50.941132 17.053677 37,000 129 430 0
2020-09-18 05:17:19 GMT 50.944519 17.047218 37,000 129 430 0
2020-09-18 05:17:16 GMT 50.949795 17.037277 37,000 129 430 0
2020-09-18 05:17:12 GMT 50.954269 17.028660 37,000 129 430 0
2020-09-18 05:17:09 GMT 50.957428 17.022722 37,000 129 430 0
2020-09-18 05:17:06 GMT 50.960827 17.016220 37,000 129 430 0
2020-09-18 05:17:03 GMT 50.964981 17.008394 37,000 129 430 0
2020-09-18 05:17:00 GMT 50.972122 16.994810 37,000 129 430 0
2020-09-18 05:16:57 GMT 50.972122 16.994810 37,000 129 430 0
2020-09-18 05:16:54 GMT 50.981033 16.977844 37,000 129 430 0
2020-09-18 05:16:51 GMT 50.981033 16.977844 37,000 129 430 0
2020-09-18 05:16:48 GMT 50.984207 16.971724 37,000 129 430 0
2020-09-18 05:16:45 GMT 50.988922 16.962742 37,000 129 430 0
2020-09-18 05:16:42 GMT 50.991135 16.958542 37,000 129 430 0
2020-09-18 05:16:39 GMT 50.995693 16.949768 37,000 129 430 0
2020-09-18 05:16:36 GMT 50.998169 16.945148 37,000 129 430 0
2020-09-18 05:16:33 GMT 51.004074 16.933867 37,000 129 430 0
2020-09-18 05:16:27 GMT 51.011078 16.920504 37,000 129 430 0
2020-09-18 05:16:24 GMT 51.015381 16.912264 37,000 129 430 0
2020-09-18 05:16:20 GMT 51.020508 16.902466 37,000 129 430 0
2020-09-18 05:16:17 GMT 51.023861 16.896057 37,000 129 430 0
2020-09-18 05:16:13 GMT 51.029526 16.885244 37,000 129 430 0
2020-09-18 05:16:10 GMT 51.033218 16.878128 37,000 129 430 0
2020-09-18 05:16:07 GMT 51.035660 16.873514 37,000 129 431 0
2020-09-18 05:16:04 GMT 51.039780 16.865646 37,000 129 431 0
2020-09-18 05:16:01 GMT 51.043625 16.858225 37,000 129 430 0
2020-09-18 05:15:58 GMT 51.048298 16.849289 37,000 129 430 0
2020-09-18 05:15:54 GMT 51.052734 16.840778 37,000 129 430 0
2020-09-18 05:15:51 GMT 51.056808 16.832836 37,000 129 430 0
2020-09-18 05:15:47 GMT 51.060425 16.825857 37,000 129 430 0
2020-09-18 05:15:44 GMT 51.066330 16.814575 37,000 129 430 0
2020-09-18 05:15:40 GMT 51.070770 16.805964 37,000 129 430 0
2020-09-18 05:15:37 GMT 51.073483 16.800766 37,000 129 430 0
2020-09-18 05:15:34 GMT 51.082890 16.782532 37,000 129 431 0
2020-09-18 05:15:30 GMT 51.082890 16.782532 37,000 129 430 0
2020-09-18 05:15:27 GMT 51.087433 16.773823 37,000 129 430 0
2020-09-18 05:15:23 GMT 51.090755 16.767426 37,000 129 430 0
2020-09-18 05:15:20 GMT 51.095993 16.757269 37,000 129 430 0
2020-09-18 05:15:17 GMT 51.099197 16.751034 37,000 129 431 0
2020-09-18 05:15:14 GMT 51.103134 16.743462 37,000 129 431 0
2020-09-18 05:15:10 GMT 51.109451 16.731287 37,000 129 430 0
2020-09-18 05:15:07 GMT 51.112015 16.726313 37,000 129 431 0
2020-09-18 05:15:04 GMT 51.116272 16.718075 37,000 129 431 0
2020-09-18 05:15:01 GMT 51.120804 16.709314 37,000 129 431 0
2020-09-18 05:14:58 GMT 51.122829 16.705399 37,000 129 431 0
2020-09-18 05:14:55 GMT 51.128044 16.695251 37,000 129 431 0
2020-09-18 05:14:52 GMT 51.131241 16.689123 37,000 129 431 0
2020-09-18 05:14:49 GMT 51.134216 16.683332 37,000 129 430 0
2020-09-18 05:14:46 GMT 51.137924 16.676132 37,000 129 430 0
2020-09-18 05:14:43 GMT 51.144150 16.664106 37,000 129 430 0
2020-09-18 05:14:39 GMT 51.148434 16.655807 37,000 129 431 0
2020-09-18 05:14:36 GMT 51.151932 16.648964 37,000 129 430 0
2020-09-18 05:14:32 GMT 51.157104 16.638943 37,000 129 431 0
2020-09-18 05:14:28 GMT 51.160442 16.632538 37,000 129 430 0
2020-09-18 05:14:25 GMT 51.164474 16.624689 37,000 129 430 0
2020-09-18 05:14:22 GMT 51.168964 16.615982 37,000 129 430 0
2020-09-18 05:14:19 GMT 51.176331 16.601604 37,000 129 430 0
2020-09-18 05:14:16 GMT 51.176331 16.601604 37,000 129 430 0
2020-09-18 05:14:13 GMT 51.179535 16.595442 37,000 129 429 0
2020-09-18 05:14:10 GMT 51.184937 16.584976 37,000 129 430 0
2020-09-18 05:14:07 GMT 51.191120 16.572952 37,000 129 430 0
2020-09-18 05:14:04 GMT 51.194798 16.565857 37,000 129 429 0
2020-09-18 05:14:01 GMT 51.194798 16.565857 37,000 129 429 0
2020-09-18 05:13:58 GMT 51.199501 16.556778 37,000 129 429 0
2020-09-18 05:13:55 GMT 51.202789 16.550459 37,000 129 429 0
2020-09-18 05:13:52 GMT 51.208603 16.539101 37,000 129 429 0
2020-09-18 05:13:48 GMT 51.212082 16.532419 37,000 129 429 0
2020-09-18 05:13:45 GMT 51.216309 16.524277 37,000 129 429 0
2020-09-18 05:13:42 GMT 51.218307 16.520309 37,000 129 429 0
2020-09-18 05:13:39 GMT 51.222778 16.511688 37,000 129 429 0
2020-09-18 05:13:36 GMT 51.226776 16.503914 37,000 129 429 0
2020-09-18 05:13:33 GMT 51.231216 16.495378 37,000 129 429 0
2020-09-18 05:13:27 GMT 51.238220 16.481792 37,000 129 429 0
2020-09-18 05:13:24 GMT 51.240875 16.476597 37,000 129 429 0
2020-09-18 05:13:21 GMT 51.249573 16.459745 37,000 129 428 0
2020-09-18 05:13:18 GMT 51.249573 16.459745 37,000 129 429 0
2020-09-18 05:13:15 GMT 51.253128 16.452713 37,000 129 429 0
2020-09-18 05:13:12 GMT 51.256947 16.445389 37,000 129 429 0
2020-09-18 05:13:09 GMT 51.260513 16.438368 37,000 129 428 0
2020-09-18 05:13:06 GMT 51.263836 16.431885 37,000 129 429 0
2020-09-18 05:13:03 GMT 51.268120 16.423569 37,000 129 429 0
2020-09-18 05:13:00 GMT 51.271500 16.417063 37,000 129 427 0
2020-09-18 05:12:57 GMT 51.275566 16.409073 37,000 129 429 0
2020-09-18 05:12:54 GMT 51.278873 16.402664 37,000 129 428 0
2020-09-18 05:12:51 GMT 51.284691 16.391373 37,000 129 427 0
2020-09-18 05:12:47 GMT 51.289299 16.382446 37,000 129 428 0
2020-09-18 05:12:44 GMT 51.292095 16.376953 37,000 129 428 0
2020-09-18 05:12:41 GMT 51.295578 16.370222 37,000 129 428 0
2020-09-18 05:12:38 GMT 51.299194 16.363171 37,000 129 427 0
2020-09-18 05:12:35 GMT 51.303173 16.355438 37,000 129 428 0
2020-09-18 05:12:32 GMT 51.306793 16.348324 37,000 129 427 0
2020-09-18 05:12:29 GMT 51.310638 16.340754 37,000 129 427 0
2020-09-18 05:12:26 GMT 51.313889 16.334370 37,000 129 427 0
2020-09-18 05:12:23 GMT 51.317650 16.326981 37,000 129 427 0
2020-09-18 05:12:20 GMT 51.322960 16.316605 37,000 129 427 0
2020-09-18 05:12:17 GMT 51.325237 16.312103 37,000 129 427 0
2020-09-18 05:12:14 GMT 51.330173 16.302414 37,000 129 427 0
2020-09-18 05:12:11 GMT 51.333618 16.295700 37,000 129 427 0
2020-09-18 05:12:07 GMT 51.338226 16.286621 37,000 129 427 0
2020-09-18 05:12:04 GMT 51.340836 16.281509 37,000 129 427 0
2020-09-18 05:12:01 GMT 51.345116 16.273041 37,000 129 427 0
2020-09-18 05:11:58 GMT 51.351448 16.260605 37,000 129 427 0
2020-09-18 05:11:54 GMT 51.354847 16.253891 37,000 129 427 0
2020-09-18 05:11:51 GMT 51.357880 16.247963 37,000 129 427 0
2020-09-18 05:11:48 GMT 51.362274 16.239279 37,000 129 427 0
2020-09-18 05:11:45 GMT 51.366856 16.230240 37,000 129 427 0
2020-09-18 05:11:41 GMT 51.370861 16.222382 37,000 129 427 0
2020-09-18 05:11:37 GMT 51.375378 16.213379 37,000 129 427 0
2020-09-18 05:11:34 GMT 51.379704 16.204987 37,000 129 427 0
2020-09-18 05:11:31 GMT 51.382915 16.198578 37,000 129 427 0
2020-09-18 05:11:28 GMT 51.385895 16.192703 37,000 129 427 0
2020-09-18 05:11:25 GMT 51.391617 16.181377 37,000 128 428 0
2020-09-18 05:11:22 GMT 51.394695 16.175385 37,000 128 428 0
2020-09-18 05:11:18 GMT 51.399582 16.165695 37,000 128 428 0
2020-09-18 05:11:14 GMT 51.403885 16.157177 37,000 128 428 0
2020-09-18 05:11:11 GMT 51.407169 16.150665 37,000 128 428 0
2020-09-18 05:11:08 GMT 51.412151 16.140823 37,000 128 428 0
2020-09-18 05:11:05 GMT 51.416473 16.132235 37,000 128 428 0
2020-09-18 05:11:02 GMT 51.418530 16.128159 37,000 128 428 0
2020-09-18 05:10:59 GMT 51.422440 16.120377 37,000 129 428 0
2020-09-18 05:10:56 GMT 51.426769 16.111832 37,000 129 428 0
2020-09-18 05:10:53 GMT 51.430847 16.103804 37,000 129 428 0
2020-09-18 05:10:50 GMT 51.433731 16.098087 37,000 129 428 0
2020-09-18 05:10:47 GMT 51.437523 16.090546 37,000 129 428 0
2020-09-18 05:10:44 GMT 51.441101 16.083538 37,000 128 429 0
2020-09-18 05:10:41 GMT 51.450073 16.065798 37,000 128 429 0
2020-09-18 05:10:38 GMT 51.450073 16.065798 37,000 128 429 0
2020-09-18 05:10:34 GMT 51.453957 16.058044 37,000 128 429 0
2020-09-18 05:10:31 GMT 51.456528 16.052956 37,000 128 429 0
2020-09-18 05:10:28 GMT 51.461124 16.043854 37,000 128 429 0
2020-09-18 05:10:24 GMT 51.469894 16.026455 37,000 128 429 0
2020-09-18 05:10:21 GMT 51.473602 16.019106 37,000 128 429 0
2020-09-18 05:10:18 GMT 51.473602 16.019106 37,000 128 429 0
2020-09-18 05:10:15 GMT 51.477310 16.011831 37,000 128 429 0
2020-09-18 05:10:12 GMT 51.481888 16.002655 37,000 128 429 0
2020-09-18 05:10:09 GMT 51.484772 15.996933 37,000 128 429 0
2020-09-18 05:10:06 GMT 51.488434 15.989710 37,000 128 429 0
2020-09-18 05:10:03 GMT 51.492142 15.982361 37,000 128 429 0
2020-09-18 05:09:59 GMT 51.497177 15.972265 37,000 128 429 0
2020-09-18 05:09:56 GMT 51.502075 15.962541 37,000 128 428 0
2020-09-18 05:09:53 GMT 51.505783 15.955266 37,000 128 429 0
2020-09-18 05:09:49 GMT 51.515591 15.935593 37,000 128 429 0
2020-09-18 05:09:45 GMT 51.515591 15.935593 37,000 128 429 0
2020-09-18 05:09:41 GMT 51.519333 15.928246 37,000 128 429 64
2020-09-18 05:09:38 GMT 51.523319 15.920258 37,000 128 429 0
2020-09-18 05:09:35 GMT 51.528114 15.910721 37,000 128 429 0
2020-09-18 05:09:32 GMT 51.531738 15.903452 37,000 128 428 0
2020-09-18 05:09:29 GMT 51.534073 15.898850 37,000 128 428 -64
2020-09-18 05:09:26 GMT 51.539108 15.888829 37,000 128 428 -64
2020-09-18 05:09:23 GMT 51.542770 15.881480 37,025 128 428 -64
2020-09-18 05:09:20 GMT 51.545712 15.875626 37,025 128 428 -64
2020-09-18 05:09:17 GMT 51.553207 15.860769 37,000 128 428 320
2020-09-18 05:09:14 GMT 51.553207 15.860769 37,000 128 428 640
2020-09-18 05:09:11 GMT 51.557255 15.852661 36,925 128 428 960
2020-09-18 05:09:07 GMT 51.562374 15.842438 36,900 128 428 960
2020-09-18 05:09:04 GMT 51.566620 15.833897 36,850 128 428 960
2020-09-18 05:09:01 GMT 51.568954 15.829295 36,825 128 429 960
2020-09-18 05:08:57 GMT 51.575317 15.816527 36,725 128 429 960
2020-09-18 05:08:54 GMT 51.577606 15.811999 36,700 128 429 960
2020-09-18 05:08:51 GMT 51.580715 15.805740 36,600 128 431 960
2020-09-18 05:08:48 GMT 51.586117 15.794907 36,600 128 429 960
2020-09-18 05:08:45 GMT 51.589981 15.787201 36,550 128 431 960
2020-09-18 05:08:42 GMT 51.593987 15.779190 36,525 128 431 960
2020-09-18 05:08:39 GMT 51.597523 15.772171 36,450 128 431 960
2020-09-18 05:08:36 GMT 51.601089 15.765010 36,425 128 431 960
2020-09-18 05:08:33 GMT 51.603561 15.760036 36,350 128 431 960
2020-09-18 05:08:29 GMT 51.611343 15.744522 36,275 128 432 960
2020-09-18 05:08:26 GMT 51.612625 15.741998 36,200 128 432 960
2020-09-18 05:08:23 GMT 51.620659 15.725861 36,100 128 432 960
2020-09-18 05:08:17 GMT 51.623016 15.721287 36,100 128 432 960
2020-09-18 05:08:14 GMT 51.626759 15.713806 36,050 128 431 896
2020-09-18 05:08:11 GMT 51.631458 15.704269 36,050 128 431 896
2020-09-18 05:08:08 GMT 51.636063 15.695083 35,950 128 431 960
2020-09-18 05:08:05 GMT 51.639793 15.687637 35,925 128 431 960
2020-09-18 05:08:01 GMT 51.643799 15.679569 35,850 128 431 1024
2020-09-18 05:07:58 GMT 51.647736 15.671700 35,750 128 431 1280
2020-09-18 05:07:55 GMT 51.652409 15.662308 35,725 128 431 1344
2020-09-18 05:07:52 GMT 51.655060 15.657043 35,650 128 431 1344
2020-09-18 05:07:49 GMT 51.659866 15.647426 35,600 128 430 1408
2020-09-18 05:07:46 GMT 51.662418 15.642319 35,525 128 430 1408
2020-09-18 05:07:43 GMT 51.667397 15.632248 35,525 128 430 1408
2020-09-18 05:07:40 GMT 51.670284 15.626450 35,350 128 431 1408
2020-09-18 05:07:37 GMT 51.673588 15.619736 35,175 128 431 1472
2020-09-18 05:07:33 GMT 51.679001 15.608974 35,250 128 431 1408
2020-09-18 05:07:30 GMT 51.682663 15.601551 35,175 128 431 1408
2020-09-18 05:07:27 GMT 51.686577 15.593567 35,100 128 431 1472
2020-09-18 05:07:24 GMT 51.690948 15.584775 34,975 128 431 1536
2020-09-18 05:07:21 GMT 51.695190 15.576248 34,925 128 431 1472
2020-09-18 05:07:18 GMT 51.696487 15.573566 34,850 128 431 1472
2020-09-18 05:07:15 GMT 51.700974 15.564509 34,850 128 431 1472
2020-09-18 05:07:12 GMT 51.704548 15.557327 34,700 128 431 1600
2020-09-18 05:07:09 GMT 51.708969 15.548325 34,625 128 432 1664
2020-09-18 05:07:06 GMT 51.712234 15.541646 34,525 128 431 1600
2020-09-18 05:07:03 GMT 51.715988 15.534074 34,475 128 431 1600
2020-09-18 05:07:00 GMT 51.720512 15.524979 34,425 128 431 1600
2020-09-18 05:06:57 GMT 51.724331 15.517197 34,325 128 432 1728
2020-09-18 05:06:54 GMT 51.727497 15.510788 34,200 128 432 1792
2020-09-18 05:06:51 GMT 51.730709 15.504227 34,125 128 433 1792
2020-09-18 05:06:48 GMT 51.734432 15.496750 33,500 128 434 1920
2020-09-18 05:06:44 GMT 51.742859 15.479662 33,875 128 434 1920
2020-09-18 05:06:41 GMT 51.742859 15.479662 33,775 128 434 1920
2020-09-18 05:06:38 GMT 51.747162 15.470828 33,750 128 434 1920
2020-09-18 05:06:35 GMT 51.751007 15.463034 33,625 128 436 1920
2020-09-18 05:06:31 GMT 51.755539 15.453829 33,500 128 436 1984
2020-09-18 05:06:27 GMT 51.763062 15.438538 33,300 128 437 2048
2020-09-18 05:06:24 GMT 51.765484 15.433655 33,325 128 437 2048
2020-09-18 05:06:21 GMT 51.769089 15.426289 33,150 128 438 2048
2020-09-18 05:06:18 GMT 51.772842 15.418643 32,875 128 439 2112
2020-09-18 05:06:15 GMT 51.776005 15.412216 32,950 128 439 2112
2020-09-18 05:06:12 GMT 51.779354 15.405426 32,875 128 439 2112
2020-09-18 05:06:09 GMT 51.783600 15.396745 32,750 128 440 2112
2020-09-18 05:06:06 GMT 51.787903 15.387911 32,600 128 441 2112
2020-09-18 05:06:03 GMT 51.792114 15.379375 32,500 128 442 2112
2020-09-18 05:06:00 GMT 51.798935 15.365419 32,350 128 442 2176
2020-09-18 05:05:57 GMT 51.798935 15.365419 32,300 128 443 2176
2020-09-18 05:05:53 GMT 51.804245 15.354581 32,150 128 443 2240
2020-09-18 05:05:50 GMT 51.806900 15.349162 32,000 128 444 2240
2020-09-18 05:05:47 GMT 51.814911 15.332831 31,900 128 444 2240
2020-09-18 05:05:44 GMT 51.814911 15.332831 31,850 128 446 2240
2020-09-18 05:05:41 GMT 51.822186 15.318069 31,625 128 446 2176
2020-09-18 05:05:35 GMT 51.827820 15.306553 31,450 128 447 2304
2020-09-18 05:05:31 GMT 51.831207 15.299650 31,375 128 448 2304
2020-09-18 05:05:28 GMT 51.834988 15.291977 31,250 128 449 2304
2020-09-18 05:05:23 GMT 51.841736 15.278168 31,075 128 449 2240
2020-09-18 05:05:20 GMT 51.845692 15.270157 30,975 128 450 2176
2020-09-18 05:05:17 GMT 51.848812 15.263748 30,850 128 450 2176
2020-09-18 05:05:14 GMT 51.853233 15.254822 30,700 128 451 2176
2020-09-18 05:05:11 GMT 51.857300 15.246500 30,650 128 451 2176
2020-09-18 05:05:08 GMT 51.861832 15.237221 30,500 128 452 1856
2020-09-18 05:05:03 GMT 51.872646 15.215073 30,350 128 451 1536
2020-09-18 05:05:00 GMT 51.872646 15.215073 30,275 128 451 1600
2020-09-18 05:04:57 GMT 51.876480 15.207231 30,250 128 451 1600
2020-09-18 05:04:54 GMT 51.879768 15.200577 30,125 128 450 1536
2020-09-18 05:04:51 GMT 51.883942 15.192013 30,050 128 449 1600
2020-09-18 05:04:48 GMT 51.887283 15.185184 29,975 128 449 1600
2020-09-18 05:04:44 GMT 51.893177 15.173111 29,875 128 448 1408
2020-09-18 05:04:41 GMT 51.897446 15.164337 29,850 128 448 1344
2020-09-18 05:04:38 GMT 51.900066 15.158936 29,725 128 447 1408
2020-09-18 05:04:35 GMT 51.904488 15.149911 29,650 128 445 1472
2020-09-18 05:04:29 GMT 51.912125 15.134216 29,500 128 444 1408
2020-09-18 05:04:26 GMT 51.921616 15.114746 29,400 128 442 1472
2020-09-18 05:04:22 GMT 51.921616 15.114746 29,375 128 442 1536
2020-09-18 05:04:18 GMT 51.925461 15.106888 29,200 128 441 1536
2020-09-18 05:04:15 GMT 51.928696 15.100159 29,200 128 441 1472
2020-09-18 05:04:12 GMT 51.938660 15.079677 29,025 128 440 1472
2020-09-18 05:04:08 GMT 51.938660 15.079677 28,975 128 439 1536
2020-09-18 05:04:05 GMT 51.942802 15.071280 28,975 128 439 1536
2020-09-18 05:04:02 GMT 51.945454 15.065709 28,850 128 438 1600
2020-09-18 05:03:58 GMT 51.950294 15.055821 28,775 128 437 1536
2020-09-18 05:03:55 GMT 51.954117 15.047989 28,650 128 435 1472
2020-09-18 05:03:52 GMT 51.957825 15.040283 28,550 128 435 1664
2020-09-18 05:03:49 GMT 51.962444 15.030788 28,500 128 435 1664
2020-09-18 05:03:43 GMT 51.969662 15.015878 28,350 128 433 1408
2020-09-18 05:03:40 GMT 51.973709 15.007481 28,275 128 432 1344
2020-09-18 05:03:37 GMT 51.977417 14.999847 28,100 128 431 1472
2020-09-18 05:03:34 GMT 51.982929 14.988491 28,075 128 430 1664
2020-09-18 05:03:31 GMT 51.987488 14.979095 26,375 127 422 1728
2020-09-18 05:03:28 GMT 51.987488 14.979095 27,850 128 429 1664
2020-09-18 05:03:25 GMT 51.995266 14.962987 27,750 127 427 1664
2020-09-18 05:03:19 GMT 51.998852 14.955610 27,700 127 427 1664
2020-09-18 05:03:16 GMT 52.001678 14.949722 27,625 128 426 1664
2020-09-18 05:03:13 GMT 52.005981 14.940796 27,550 128 425 1856
2020-09-18 05:03:10 GMT 52.010330 14.931793 27,450 128 425 1920
2020-09-18 05:03:07 GMT 52.014084 14.924011 27,375 128 425 1920
2020-09-18 05:03:04 GMT 52.016678 14.918649 27,300 127 424 1856
2020-09-18 05:03:01 GMT 52.025024 14.901276 27,000 127 422 1728
2020-09-18 05:02:57 GMT 52.025024 14.901276 27,050 127 422 1728
2020-09-18 05:02:54 GMT 52.028595 14.893951 26,850 127 421 1856
2020-09-18 05:02:51 GMT 52.037395 14.875645 26,875 127 421 1792
2020-09-18 05:02:48 GMT 52.037395 14.875645 26,800 128 420 1856
2020-09-18 05:02:45 GMT 52.039124 14.872055 26,750 127 419 1920
2020-09-18 05:02:42 GMT 52.043076 14.863796 26,625 127 419 1984
2020-09-18 05:02:39 GMT 52.047825 14.853986 26,475 127 418 1920
2020-09-18 05:02:36 GMT 52.053360 14.842453 26,350 127 417 1920
2020-09-18 05:02:33 GMT 52.056992 14.834839 26,275 127 416 1984
2020-09-18 05:02:30 GMT 52.056992 14.834839 25,650 127 416 1984
2020-09-18 05:02:27 GMT 52.062160 14.824166 24,725 127 414 1984
2020-09-18 05:02:24 GMT 52.064575 14.819031 26,100 127 416 2112
2020-09-18 05:02:21 GMT 52.068680 14.810512 25,900 127 414 2112
2020-09-18 05:02:18 GMT 52.073845 14.799761 25,750 127 414 1984
2020-09-18 05:02:15 GMT 52.075150 14.797134 25,750 127 413 1984
2020-09-18 05:02:12 GMT 52.078949 14.789124 25,625 127 413 1984
2020-09-18 05:02:05 GMT 52.087646 14.771042 25,375 127 411 2112
2020-09-18 05:02:02 GMT 52.091675 14.762721 25,175 127 411 2176
2020-09-18 05:01:59 GMT 52.093002 14.759827 25,200 127 410 2176
2020-09-18 05:01:56 GMT 52.098221 14.749069 25,025 127 409 2112
2020-09-18 05:01:53 GMT 52.102196 14.740749 24,925 127 409 2048
2020-09-18 05:01:50 GMT 52.104614 14.735648 24,825 127 408 2112
2020-09-18 05:01:47 GMT 52.108852 14.726859 24,700 127 408 2176
2020-09-18 05:01:44 GMT 52.111973 14.720346 24,625 127 406 2240
2020-09-18 05:01:40 GMT 52.117184 14.709516 24,225 127 406 2432
2020-09-18 05:01:37 GMT 52.119370 14.704819 24,300 127 406 2432
2020-09-18 05:01:34 GMT 52.122818 14.697667 24,250 127 406 2432
2020-09-18 05:01:31 GMT 52.126308 14.690369 24,100 127 405 2432
2020-09-18 05:01:28 GMT 52.128708 14.685364 24,075 127 405 2432
2020-09-18 05:01:25 GMT 52.132641 14.677185 23,900 127 404 2304
2020-09-18 05:01:22 GMT 52.136829 14.668396 23,775 127 404 2304
2020-09-18 05:01:19 GMT 52.143906 14.653564 23,425 127 398 2368
2020-09-18 05:01:16 GMT 52.143906 14.653564 23,425 127 402 2432
2020-09-18 05:01:13 GMT 52.146748 14.647600 23,375 127 402 2432
2020-09-18 05:01:10 GMT 52.149632 14.641558 23,050 127 398 2368
2020-09-18 05:01:07 GMT 52.153542 14.633397 23,050 127 398 2368
2020-09-18 05:01:04 GMT 52.160896 14.617937 23,000 127 401 2432
2020-09-18 05:01:01 GMT 52.160896 14.617937 22,925 127 399 2496
2020-09-18 05:00:56 GMT 52.165924 14.607391 22,725 127 399 2624
2020-09-18 05:00:53 GMT 52.172722 14.593218 22,400 127 398 2368
2020-09-18 05:00:47 GMT 52.176678 14.584900 22,350 127 397 2368
2020-09-18 05:00:43 GMT 52.184826 14.567793 22,125 127 397 2560
2020-09-18 05:00:39 GMT 52.184826 14.567793 22,025 127 396 2624
2020-09-18 05:00:36 GMT 52.188877 14.559317 21,875 127 396 2624
2020-09-18 05:00:33 GMT 52.192089 14.552569 21,775 127 395 2560
2020-09-18 05:00:30 GMT 52.195541 14.545288 21,625 127 394 2496
2020-09-18 05:00:27 GMT 52.199524 14.536896 21,450 127 393 2432
2020-09-18 05:00:24 GMT 52.203491 14.528634 21,325 127 393 2432
2020-09-18 05:00:21 GMT 52.205566 14.524231 20,875 127 392 2496
2020-09-18 05:00:18 GMT 52.208450 14.518204 21,225 127 392 2496
2020-09-18 05:00:15 GMT 52.212112 14.510422 21,000 127 391 2432
2020-09-18 05:00:12 GMT 52.216621 14.501011 20,900 127 389 2496
2020-09-18 05:00:09 GMT 52.218109 14.497951 20,825 127 389 2496
2020-09-18 05:00:06 GMT 52.221680 14.490433 20,575 127 388 2560
2020-09-18 05:00:03 GMT 52.225571 14.482269 20,450 127 387 2560
2020-09-18 05:00:00 GMT 52.229469 14.474095 20,350 127 387 2496
2020-09-18 04:59:56 GMT 52.235615 14.461147 20,225 127 385 2432
2020-09-18 04:59:53 GMT 52.235615 14.461147 19,925 127 384 2368
2020-09-18 04:59:50 GMT 52.242085 14.447728 19,425 127 382 2496
2020-09-18 04:59:44 GMT 52.246628 14.438171 19,725 127 381 2688
2020-09-18 04:59:41 GMT 52.250427 14.430161 19,500 127 381 2752
2020-09-18 04:59:38 GMT 52.253117 14.424578 19,425 127 380 2816
2020-09-18 04:59:35 GMT 52.256329 14.417829 19,250 127 379 2752
2020-09-18 04:59:32 GMT 52.261917 14.406204 19,025 127 379 2560
2020-09-18 04:59:26 GMT 52.265671 14.398270 18,875 127 376 2496
2020-09-18 04:59:22 GMT 52.268921 14.391479 18,800 128 376 2560
2020-09-18 04:59:19 GMT 52.273682 14.381638 18,600 127 374 2816
2020-09-18 04:59:16 GMT 52.276749 14.375153 18,525 127 374 2880
2020-09-18 04:59:13 GMT 52.283112 14.360886 15,400 122 371 2752
2020-09-18 04:59:09 GMT 52.283112 14.360886 15,400 122 371 2752
2020-09-18 04:59:06 GMT 52.285423 14.355050 18,025 122 371 2752
2020-09-18 04:59:03 GMT 52.289196 14.345163 17,825 119 369 3008
2020-09-18 04:59:00 GMT 52.291801 14.337708 17,725 119 368 3072
2020-09-18 04:58:57 GMT 52.293850 14.331508 17,600 118 368 3136
2020-09-18 04:58:54 GMT 52.296829 14.321699 17,350 114 366 3008
2020-09-18 04:58:51 GMT 52.298264 14.316559 17,175 112 365 3072
2020-09-18 04:58:48 GMT 52.300694 14.307338 17,050 111 364 3136
2020-09-18 04:58:45 GMT 52.302200 14.300919 16,925 109 363 3136
2020-09-18 04:58:42 GMT 52.303528 14.294739 16,600 107 362 3136
2020-09-18 04:58:39 GMT 52.305210 14.286229 16,525 106 361 3072
2020-09-18 04:58:35 GMT 52.307213 14.275164 16,425 106 361 2816
2020-09-18 04:58:32 GMT 52.308655 14.267120 16,200 106 360 2688
2020-09-18 04:58:26 GMT 52.311310 14.252396 16,050 106 358 2816
2020-09-18 04:58:23 GMT 52.312706 14.244481 15,800 106 356 3392
2020-09-18 04:58:20 GMT 52.313869 14.238124 15,725 106 356 3456
2020-09-18 04:58:17 GMT 52.315544 14.228786 15,525 106 356 3328
2020-09-18 04:58:14 GMT 52.316757 14.222031 15,475 106 356 3264
2020-09-18 04:58:10 GMT 52.318710 14.210894 15,175 106 351 2752
2020-09-18 04:58:07 GMT 52.319778 14.205017 15,025 106 353 2944
2020-09-18 04:58:04 GMT 52.321457 14.195513 14,800 106 352 2816
2020-09-18 04:58:01 GMT 52.323349 14.184799 14,675 106 351 2688
2020-09-18 04:57:57 GMT 52.324814 14.176331 14,575 106 349 2496
2020-09-18 04:57:54 GMT 52.325928 14.170244 14,425 106 347 2624
2020-09-18 04:57:50 GMT 52.327560 14.160919 14,250 106 345 2944
2020-09-18 04:57:47 GMT 52.328888 14.153519 14,025 106 344 3200
2020-09-18 04:57:44 GMT 52.331654 14.137992 13,750 106 343 3712
2020-09-18 04:57:41 GMT 52.331654 14.137992 13,675 106 343 3776
2020-09-18 04:57:38 GMT 52.333099 14.130096 13,525 106 343 3776
2020-09-18 04:57:35 GMT 52.334259 14.123631 12,825 106 342 3264
2020-09-18 04:57:32 GMT 52.337311 14.106445 13,025 106 343 3584
2020-09-18 04:57:29 GMT 52.337311 14.106445 12,950 106 343 3456
2020-09-18 04:57:26 GMT 52.338261 14.101266 12,825 106 343 3392
2020-09-18 04:57:23 GMT 52.340057 14.091110 12,600 106 341 3328
2020-09-18 04:57:20 GMT 52.342667 14.076614 12,350 106 340 3904
2020-09-18 04:57:17 GMT 52.342667 14.076614 12,225 106 340 4096
2020-09-18 04:57:14 GMT 52.343903 14.069672 12,025 106 340 4160
2020-09-18 04:57:11 GMT 52.345047 14.063263 11,825 106 341 3968
2020-09-18 04:57:08 GMT 52.346375 14.055710 11,575 106 340 3456
2020-09-18 04:57:05 GMT 52.347759 14.048061 11,500 106 340 3328
2020-09-18 04:57:02 GMT 52.348877 14.041548 11,325 106 339 3200
2020-09-18 04:56:59 GMT 52.350227 14.033779 11,275 105 332 2048
2020-09-18 04:56:55 GMT 52.352280 14.022293 10,950 105 333 2432
2020-09-18 04:56:52 GMT 52.353378 14.016037 10,875 105 331 1664
2020-09-18 04:56:49 GMT 52.354614 14.008713 10,700 105 325 1088
2020-09-18 04:56:45 GMT 52.356216 13.999634 10,775 105 323 1088
2020-09-18 04:56:42 GMT 52.357395 13.992894 10,675 105 315 1024
2020-09-18 04:56:39 GMT 52.358559 13.986145 10,600 105 310 896
2020-09-18 04:56:36 GMT 52.359695 13.979568 10,600 105 310 896
2020-09-18 04:56:32 GMT 52.361298 13.970337 10,375 105 294 2304
2020-09-18 04:56:29 GMT 52.362514 13.963466 10,500 105 299 1408
2020-09-18 04:56:26 GMT 52.363586 13.957188 10,350 105 294 2560
2020-09-18 04:56:23 GMT 52.365829 13.944626 10,150 105 292 3008
2020-09-18 04:56:20 GMT 52.365829 13.944626 10,050 105 291 3008
2020-09-18 04:56:17 GMT 52.367172 13.936863 9,825 105 289 3072
2020-09-18 04:56:14 GMT 52.367962 13.932234 9,675 105 289 3072
2020-09-18 04:56:11 GMT 52.369080 13.925956 9,600 105 289 3008
2020-09-18 04:56:08 GMT 52.371185 13.913727 9,375 105 287 2880
2020-09-18 04:56:02 GMT 52.372711 13.905082 9,175 105 285 2880
2020-09-18 04:55:59 GMT 52.373550 13.900138 9,000 105 283 2816
2020-09-18 04:55:56 GMT 52.374573 13.894424 8,925 105 283 2816
2020-09-18 04:55:53 GMT 52.376015 13.886091 8,700 105 281 2688
2020-09-18 04:55:49 GMT 52.377365 13.878165 8,525 105 279 2752
2020-09-18 04:55:45 GMT 52.378483 13.871652 8,425 105 278 2880
2020-09-18 04:55:42 GMT 52.379414 13.866394 8,250 105 277 3008
2020-09-18 04:55:39 GMT 52.380615 13.859482 8,100 105 276 3008
2020-09-18 04:55:36 GMT 52.381695 13.853289 7,875 105 275 2880
2020-09-18 04:55:33 GMT 52.383045 13.845442 7,725 105 274 2816
2020-09-18 04:55:30 GMT 52.383911 13.840332 7,275 105 272 2944
2020-09-18 04:55:26 GMT 52.385101 13.833618 7,400 105 272 2944
2020-09-18 04:55:22 GMT 52.386444 13.826059 7,275 106 271 3008
2020-09-18 04:55:19 GMT 52.387436 13.820267 7,200 106 270 3008
2020-09-18 04:55:16 GMT 52.388680 13.813424 6,950 106 270 2944
2020-09-18 04:55:13 GMT 52.389404 13.809357 6,775 106 268 2816
2020-09-18 04:55:10 GMT 52.390549 13.802948 6,700 106 268 2816
2020-09-18 04:55:07 GMT 52.391510 13.797684 6,600 106 268 2816
2020-09-18 04:55:04 GMT 52.392822 13.790431 6,300 106 266 2944
2020-09-18 04:55:01 GMT 52.393845 13.784790 6,225 106 265 3008
2020-09-18 04:54:57 GMT 52.395473 13.775914 6,000 107 264 2880
2020-09-18 04:54:54 GMT 52.396088 13.772659 5,800 107 263 3008
2020-09-18 04:54:51 GMT 52.397186 13.766861 5,650 106 263 3136
2020-09-18 04:54:48 GMT 52.398376 13.760681 5,625 106 262 3136
2020-09-18 04:54:45 GMT 52.399666 13.753156 5,400 103 262 3008
2020-09-18 04:54:42 GMT 52.400410 13.748056 5,275 100 261 2688
2020-09-18 04:54:39 GMT 52.400940 13.743820 5,200 99 260 2624
2020-09-18 04:54:36 GMT 52.401581 13.737259 5,075 98 259 2496
2020-09-18 04:54:32 GMT 52.402084 13.729019 4,850 92 255 2240
2020-09-18 04:54:29 GMT 52.402267 13.717957 4,750 89 252 1792
2020-09-18 04:54:23 GMT 52.402180 13.712821 4,600 87 244 1024
2020-09-18 04:54:20 GMT 52.402039 13.706621 4,575 87 240 1024
2020-09-18 04:54:17 GMT 52.401901 13.700409 4,525 88 231 1024
2020-09-18 04:54:14 GMT 52.401764 13.695679 4,475 88 230 1024
2020-09-18 04:54:10 GMT 52.401627 13.688736 4,425 87 226 1152
2020-09-18 04:54:06 GMT 52.401482 13.681981 4,300 88 217 1728
2020-09-18 04:54:03 GMT 52.401386 13.677272 4,250 88 215 2048
2020-09-18 04:54:00 GMT 52.401295 13.672328 4,075 88 212 2752
2020-09-18 04:53:56 GMT 52.401123 13.660812 3,750 88 211 2496
2020-09-18 04:53:49 GMT 52.401031 13.655777 3,625 88 209 1920
2020-09-18 04:53:46 GMT 52.400986 13.650360 3,575 88 205 1472
2020-09-18 04:53:43 GMT 52.400894 13.644943 3,450 86 195 1216
2020-09-18 04:53:40 GMT 52.400803 13.640976 3,425 85 194 1280
2020-09-18 04:53:36 GMT 52.400501 13.635367 3,300 82 187 1024
2020-09-18 04:53:33 GMT 52.400177 13.631522 3,325 80 182 832
2020-09-18 04:53:30 GMT 52.399338 13.623886 3,225 77 171 1152
2020-09-18 04:53:24 GMT 52.398697 13.619461 3,075 74 164 1664
2020-09-18 04:53:21 GMT 52.398220 13.616455 3,075 74 164 1856
2020-09-18 04:53:18 GMT 52.397507 13.612366 2,975 72 163 2112
2020-09-18 04:53:15 GMT 52.396824 13.608843 2,875 69 162 2176
2020-09-18 04:53:11 GMT 52.395538 13.603134 2,700 68 162 2112
2020-09-18 04:53:08 GMT 52.394127 13.597151 2,575 68 161 2112
2020-09-18 04:53:05 GMT 52.394127 13.597151 2,500 68 160 2112
2020-09-18 04:53:01 GMT 52.393101 13.592834 2,375 68 159 2112
2020-09-18 04:52:58 GMT 52.392288 13.589554 2,300 68 158 2112
2020-09-18 04:52:55 GMT 52.391426 13.585929 2,150 68 157 2112
2020-09-18 04:52:52 GMT 52.390732 13.582993 1,950 69 157 2176
2020-09-18 04:52:49 GMT 52.389816 13.579178 1,850 69 156 2176
2020-09-18 04:52:46 GMT 52.389095 13.576041 1,850 69 156 2176
2020-09-18 04:52:43 GMT 52.388260 13.572274 1,725 69 155 2304
2020-09-18 04:52:40 GMT 52.387573 13.569183 1,475 69 156 3008
2020-09-18 04:52:37 GMT 52.386814 13.565839 1,450 69 156 3072
2020-09-18 04:52:33 GMT 52.385929 13.562073 1,275 69 157 3008
2020-09-18 04:52:30 GMT 52.384861 13.557050 1,125 69 157 2624
2020-09-18 04:52:25 GMT 52.383911 13.552856 900 69 155 2624
2020-09-18 04:52:20 GMT 52.382721 13.547821 675 68 154 2880
2020-09-18 04:52:17 GMT 52.381557 13.543161 500 68 153 2880
2020-09-18 04:52:14 GMT 52.379791 13.535767 225 68 153 2816
2020-09-18 04:52:10 GMT 52.379791 13.535767 150 68 153 3136
2020-09-18 04:52:07 GMT 52.379059 13.532867 25 68 154 3200
2020-09-18 04:52:00 GMT 52.377411 13.526001 -250 68 155 1152
2020-09-18 04:51:56 GMT 52.376434 13.521816 -300 68 145 128
2020-09-18 04:51:51 GMT 52.374992 13.515773 -300 68 120 64
2020-09-18 04:51:40 GMT 52.373154 13.508015 0 67 80
2020-09-18 04:51:35 GMT 52.372116 13.503629 0 84 23
2020-09-18 04:51:29 GMT 52.372116 13.503629 0 67 31
2020-09-18 04:51:26 GMT 52.371918 13.502864 0 70 26
2020-09-18 04:51:18 GMT 52.371735 13.501587 0 90 23
2020-09-18 04:51:15 GMT 52.371746 13.500981 0 98 23
2020-09-18 04:51:09 GMT 52.371838 13.500020 0 101 23
2020-09-18 04:51:00 GMT 52.372036 13.498509 0 104 22
2020-09-18 04:50:53 GMT 52.372223 13.497253 0 104 20
2020-09-18 04:50:50 GMT 52.372269 13.496940 0 104 20
2020-09-18 04:50:33 GMT 52.373245 13.495409 0 239 22
2020-09-18 04:50:30 GMT 52.373524 13.495468 0 199 17
2020-09-18 04:50:23 GMT 52.373886 13.495762 0 222 20
2020-09-18 04:50:13 GMT 52.374454 13.497018 0 239 21
2020-09-18 04:50:03 GMT 52.374935 13.498254 0 239 22
2020-09-18 04:49:51 GMT 52.375622 13.500020 0 239 22
2020-09-18 04:49:39 GMT 52.376244 13.501625 0 239 21
2020-09-18 04:49:34 GMT 52.376484 13.502235 0 239 21
2020-09-18 04:49:22 GMT 52.377098 13.503826 0 239 23
2020-09-18 04:49:02 GMT 52.378201 13.506603 0 236 23
2020-09-18 04:48:24 GMT 52.380318 13.512058 0 236 19
2020-09-18 04:48:14 GMT 52.380718 13.513069 0 239 15
2020-09-18 04:48:11 GMT 52.380821 13.513360 0 236 14
2020-09-18 04:48:05 GMT 52.381020 13.513851 0 236 13
2020-09-18 04:47:55 GMT 52.381451 13.514671 0 213 14
2020-09-18 04:47:41 GMT 52.382011 13.515530 0 244 10
2020-09-18 04:47:37 GMT 52.382080 13.515773 0 247 7
2020-09-18 04:47:26 GMT 52.382149 13.516107 0 250 2
2020-09-18 04:47:15 GMT 52.382172 13.516224 0 250 3
2020-09-18 04:47:06 GMT 52.382206 13.516369 0 250 4
2020-09-18 04:46:56 GMT 52.382278 13.516656 0 247 6
2020-09-18 04:46:47 GMT 52.382412 13.517246 0 244 10
2020-09-18 04:46:33 GMT 52.382858 13.517853 0 168 10
2020-09-18 04:46:26 GMT 52.383099 13.517780 0 174 10
2020-09-18 04:46:11 GMT 52.383839 13.517853 0 185 12
2020-09-18 04:46:03 GMT 52.384266 13.517931 0 185 12
2020-09-18 04:45:56 GMT 52.384655 13.518028 0 188 12
2020-09-18 04:45:46 GMT 52.385197 13.518127 0 177 13
2020-09-18 04:45:35 GMT 52.385757 13.517912 0 160 12
2020-09-18 04:45:25 GMT 52.386269 13.517647 0 188 12
2020-09-18 04:45:15 GMT 52.386677 13.518049 0 244 11
2020-09-18 04:45:06 GMT 52.386864 13.518791 0 250 10
2020-09-18 04:44:54 GMT 52.387035 13.519516 0 247 7
2020-09-18 04:44:22 GMT 52.387115 13.519859 0 247 0
2020-09-18 04:44:11 GMT 52.387127 13.519859 0 247 0
2020-09-18 04:44:01 GMT 52.387119 13.519854 0 247 0
2020-09-18 04:43:37 GMT 52.387119 13.519873 0 247 0
2020-09-18 04:43:31 GMT 52.387115 13.519859 0 247 0
2020-09-18 04:43:22 GMT 52.387119 13.519873 0 247 0
2020-09-18 04:43:12 GMT 52.387115 13.519859 0 247 0
2020-09-18 04:43:02 GMT 52.387119 13.519873 0 247 0
2020-09-18 04:42:22 GMT 52.387115 13.519859 0 247 0
2020-09-18 04:41:53 GMT 52.387119 13.519873 0 247 0
2020-09-18 04:41:26 GMT 52.387070 13.519592 0 253 3
2020-09-18 04:41:19 GMT 52.387047 13.519459 0 255 3
2020-09-18 04:41:12 GMT 52.387051 13.519305 0 261 3
2020-09-18 04:41:03 GMT 52.387051 13.519108 0 270 3

Making use of Plane Finder data

You are free to use the raw flight data, aircraft information and images provided in this report for your own purposes provided the data is correctly attributed to Plane Finder. We ask that you please credit Plane Finder and link to planefinder.net in close proximity to the content.

Optionally one of the following logos (no smaller then 150x24px) can be used and must link to planefinder.net

Embedding the Plane Finder map

You are welcome to embed the Plane Finder playback map on your website to offer visitors a more interactive experience. We suggest using the following HTML code:

<iframe src="//planefinder.net/data/report/FR314-9H-QDK-7700-squawk-2020-09-18/map" width="800" height="600" seamless="seamless"></iframe>

Where our data comes from

Plane Finder has a global network of data feeds and antenna radars that receive data broadcast directly from aircraft. The primary technologies used are ADS-B and MLAT. We also show feeds from the FAA and a FLARM glider feed.

Click here to find out more about the Plane Finder network.

How we collect our data